Observation data for Lomax on 08/14/2019      Previous  Date  Next       Current Mesonet Observations  Soil Data  Daily Summary Page  Observations in Plain Language
KLO1 140500Z 00000KT 28/19 A3005 RMK A01 T02800193  RH  059%=      5-min Rain = 0
KLO1 140501Z 18001KT 28/19 A3005 RMK A01 T02800192  RH  059%=      5-min Rain = 0
KLO1 140502Z 19001KT 28/19 A3005 RMK A01 T02800191  RH  058%=      5-min Rain = 0
KLO1 140503Z 19002KT 28/19 A3005 RMK A01 T02800191  RH  058%=      5-min Rain = 0
KLO1 140504Z 20002KT 28/19 A3005 RMK A01 T02790192  RH  059%=      5-min Rain = 0
KLO1 140505Z 20000KT 28/19 A3005 RMK A01 T02780194  RH  060%=      5-min Rain = 0
KLO1 140506Z 00000KT 28/20 A3005 RMK A01 T02780195  RH  060%=      5-min Rain = 0
KLO1 140507Z 00000KT 28/20 A3005 RMK A01 T02780195  RH  060%=      5-min Rain = 0
KLO1 140508Z 22000KT 28/19 A3005 RMK A01 T02780194  RH  060%=      5-min Rain = 0
KLO1 140509Z 21002KT 28/19 A3005 RMK A01 T02780194  RH  060%=      5-min Rain = 0
KLO1 140510Z 20002KT 28/19 A3005 RMK A01 T02780194  RH  060%=      5-min Rain = 0
KLO1 140520Z 18003KT 28/20 A3004 RMK A01 T02750195  RH  062%=      5-min Rain = 0
KLO1 140521Z 17002KT 27/20 A3004 RMK A01 T02740195  RH  062%=      5-min Rain = 0
KLO1 140522Z 17002KT 27/20 A3004 RMK A01 T02740195  RH  062%=      5-min Rain = 0
KLO1 140523Z 17001KT 27/20 A3004 RMK A01 T02740195  RH  062%=      5-min Rain = 0
KLO1 140524Z 00000KT 27/20 A3004 RMK A01 T02740195  RH  062%=      5-min Rain = 0
KLO1 140525Z 19000KT 27/20 A3005 RMK A01 T02740195  RH  062%=      5-min Rain = 0
KLO1 140526Z 20001KT 27/20 A3005 RMK A01 T02740195  RH  062%=      5-min Rain = 0
KLO1 140527Z 21000KT 27/20 A3005 RMK A01 T02740195  RH  062%=      5-min Rain = 0
KLO1 140528Z 21001KT 27/20 A3005 RMK A01 T02740195  RH  062%=      5-min Rain = 0
KLO1 140529Z 20001KT 27/19 A3005 RMK A01 T02740194  RH  062%=      5-min Rain = 0
KLO1 140530Z 20002KT 27/19 A3005 RMK A01 T02740194  RH  062%=      5-min Rain = 0
KLO1 140531Z 19001KT 27/20 A3005 RMK A01 T02740195  RH  062%=      5-min Rain = 0
KLO1 140532Z 19001KT 27/20 A3005 RMK A01 T02740195  RH  062%=      5-min Rain = 0
KLO1 140533Z 20001KT 27/19 A3005 RMK A01 T02740194  RH  062%=      5-min Rain = 0
KLO1 140534Z 21001KT 27/19 A3005 RMK A01 T02740194  RH  062%=      5-min Rain = 0
KLO1 140535Z 22001KT 27/19 A3005 RMK A01 T02730194  RH  062%=      5-min Rain = 0
KLO1 140536Z 22001KT 27/19 A3005 RMK A01 T02740193  RH  062%=      5-min Rain = 0
KLO1 140537Z 23001KT 27/19 A3005 RMK A01 T02740193  RH  061%=      5-min Rain = 0
KLO1 140538Z 25001KT 27/19 A3005 RMK A01 T02730193  RH  061%=      5-min Rain = 0
KLO1 140539Z 27001KT 27/19 A3005 RMK A01 T02740193  RH  061%=      5-min Rain = 0
KLO1 140540Z 28001KT 27/19 A3005 RMK A01 T02740193  RH  061%=      5-min Rain = 0
KLO1 140541Z 28001KT 27/19 A3005 RMK A01 T02730193  RH  061%=      5-min Rain = 0
KLO1 140542Z 28001KT 27/19 A3005 RMK A01 T02730193  RH  062%=      5-min Rain = 0
KLO1 140543Z 29001KT 27/19 A3005 RMK A01 T02730193  RH  062%=      5-min Rain = 0
KLO1 140544Z 30001KT 27/19 A3005 RMK A01 T02740193  RH  061%=      5-min Rain = 0
KLO1 140545Z 30001KT 27/19 A3005 RMK A01 T02730193  RH  061%=      5-min Rain = 0
KLO1 140546Z 30001KT 27/19 A3005 RMK A01 T02730193  RH  061%=      5-min Rain = 0
KLO1 140547Z 30001KT 27/19 A3006 RMK A01 T02730192  RH  061%=      5-min Rain = 0
KLO1 140548Z 29001KT 27/19 A3006 RMK A01 T02720191  RH  061%=      5-min Rain = 0
KLO1 140549Z 28001KT 27/19 A3006 RMK A01 T02720191  RH  061%=      5-min Rain = 0
KLO1 140550Z 28002KT 27/19 A3006 RMK A01 T02720190  RH  061%=      5-min Rain = 0
KLO1 140551Z 28002KT 27/19 A3006 RMK A01 T02720188  RH  060%=      5-min Rain = 0
KLO1 140552Z 28002KT 27/19 A3006 RMK A01 T02720189  RH  060%=      5-min Rain = 0
KLO1 140553Z 28002KT 27/19 A3006 RMK A01 T02720188  RH  060%=      5-min Rain = 0
KLO1 140554Z 29002KT 27/19 A3006 RMK A01 T02720188  RH  060%=      5-min Rain = 0
KLO1 140555Z 29003KT 27/19 A3006 RMK A01 T02720188  RH  060%=      5-min Rain = 0
KLO1 140556Z 30003KT 27/19 A3006 RMK A01 T02720187  RH  060%=      5-min Rain = 0
KLO1 140557Z 30003KT 27/19 A3006 RMK A01 T02720187  RH  060%=      5-min Rain = 0
KLO1 140558Z 29003KT 27/19 A3006 RMK A01 T02710187  RH  060%=      5-min Rain = 0
KLO1 140559Z 30003KT 27/19 A3006 RMK A01 T02710187  RH  060%=      5-min Rain = 0
KLO1 140600Z 29004KT 27/19 A3006 RMK A01 T02710187  RH  060%=      5-min Rain = 0
KLO1 140601Z 29004KT 27/19 A3006 RMK A01 T02710187  RH  060%=      5-min Rain = 0
KLO1 140602Z 29004KT 27/19 A3006 RMK A01 T02710187  RH  060%=      5-min Rain = 0
KLO1 140603Z 29004KT 27/19 A3006 RMK A01 T02710187  RH  060%=      5-min Rain = 0
KLO1 140604Z 29004KT 27/19 A3006 RMK A01 T02710187  RH  060%=      5-min Rain = 0
KLO1 140605Z 29004KT 27/19 A3006 RMK A01 T02710186  RH  060%=      5-min Rain = 0
KLO1 140606Z 29003KT 27/19 A3006 RMK A01 T02710186  RH  060%=      5-min Rain = 0
KLO1 140607Z 30003KT 27/19 A3006 RMK A01 T02710186  RH  060%=      5-min Rain = 0
KLO1 140608Z 31004KT 27/19 A3006 RMK A01 T02710185  RH  059%=      5-min Rain = 0
KLO1 140609Z 32004KT 27/19 A3006 RMK A01 T02710185  RH  059%=      5-min Rain = 0
KLO1 140610Z 32003KT 27/19 A3006 RMK A01 T02710185  RH  059%=      5-min Rain = 0
KLO1 140611Z 32004KT 27/19 A3006 RMK A01 T02710185  RH  059%=      5-min Rain = 0
KLO1 140612Z 31004KT 27/19 A3006 RMK A01 T02710185  RH  059%=      5-min Rain = 0
KLO1 140613Z 32004KT 27/18 A3006 RMK A01 T02710184  RH  059%=      5-min Rain = 0
KLO1 140614Z 32004KT 27/18 A3006 RMK A01 T02710184  RH  059%=      5-min Rain = 0
KLO1 140615Z 32004KT 27/18 A3006 RMK A01 T02710184  RH  059%=      5-min Rain = 0
KLO1 140616Z 32004KT 27/19 A3006 RMK A01 T02710185  RH  059%=      5-min Rain = 0
KLO1 140617Z 32004KT 27/19 A3006 RMK A01 T02710185  RH  059%=      5-min Rain = 0
KLO1 140618Z 32004KT 27/19 A3006 RMK A01 T02710185  RH  059%=      5-min Rain = 0
KLO1 140619Z 32004KT 27/19 A3006 RMK A01 T02710185  RH  059%=      5-min Rain = 0
KLO1 140620Z 32004KT 27/19 A3006 RMK A01 T02710185  RH  059%=      5-min Rain = 0
KLO1 140621Z 32003KT 27/19 A3006 RMK A01 T02720185  RH  059%=      5-min Rain = 0
KLO1 140622Z 33004KT 27/19 A3006 RMK A01 T02720185  RH  059%=      5-min Rain = 0
KLO1 140623Z 34004KT 27/19 A3006 RMK A01 T02720185  RH  059%=      5-min Rain = 0
KLO1 140624Z 34003KT 27/19 A3006 RMK A01 T02720185  RH  059%=      5-min Rain = 0
KLO1 140625Z 33003KT 27/19 A3006 RMK A01 T02710185  RH  059%=      5-min Rain = 0
KLO1 140626Z 33003KT 27/19 A3006 RMK A01 T02710185  RH  059%=      5-min Rain = 0
KLO1 140627Z 34003KT 27/19 A3006 RMK A01 T02710185  RH  059%=      5-min Rain = 0
KLO1 140628Z 35003KT 27/19 A3006 RMK A01 T02710185  RH  059%=      5-min Rain = 0
KLO1 140629Z 35003KT 27/19 A3006 RMK A01 T02710186  RH  060%=      5-min Rain = 0
KLO1 140630Z 34002KT 27/19 A3006 RMK A01 T02710185  RH  059%=      5-min Rain = 0
KLO1 140631Z 34002KT 27/19 A3006 RMK A01 T02720186  RH  059%=      5-min Rain = 0
KLO1 140632Z 34002KT 27/19 A3006 RMK A01 T02720186  RH  059%=      5-min Rain = 0
KLO1 140633Z 34003KT 27/19 A3006 RMK A01 T02720186  RH  060%=      5-min Rain = 0
KLO1 140634Z 33002KT 27/19 A3006 RMK A01 T02720186  RH  059%=      5-min Rain = 0
KLO1 140635Z 33002KT 27/19 A3006 RMK A01 T02720186  RH  060%=      5-min Rain = 0
KLO1 140636Z 33003KT 27/19 A3006 RMK A01 T02720188  RH  060%=      5-min Rain = 0
KLO1 140637Z 33003KT 27/19 A3006 RMK A01 T02720189  RH  061%=      5-min Rain = 0
KLO1 140638Z 34003KT 27/19 A3006 RMK A01 T02720189  RH  061%=      5-min Rain = 0
KLO1 140639Z 34003KT 27/19 A3006 RMK A01 T02720190  RH  061%=      5-min Rain = 0
KLO1 140640Z 33003KT 27/19 A3006 RMK A01 T02720190  RH  061%=      5-min Rain = 0
KLO1 140641Z 33003KT 27/19 A3006 RMK A01 T02720191  RH  061%=      5-min Rain = 0
KLO1 140642Z 34003KT 27/19 A3006 RMK A01 T02730192  RH  061%=      5-min Rain = 0
KLO1 140643Z 35003KT 27/19 A3006 RMK A01 T02720191  RH  061%=      5-min Rain = 0
KLO1 140644Z 35004KT 27/19 A3006 RMK A01 T02730192  RH  061%=      5-min Rain = 0
KLO1 140645Z 36004KT 27/19 A3006 RMK A01 T02720193  RH  062%=      5-min Rain = 0
KLO1 140646Z 00004KT 27/20 A3006 RMK A01 T02720195  RH  063%=      5-min Rain = 0
KLO1 140647Z 00004KT 27/20 A3006 RMK A01 T02720196  RH  063%=      5-min Rain = 0
KLO1 140648Z 00004KT 27/20 A3006 RMK A01 T02720199  RH  064%=      5-min Rain = 0
KLO1 140649Z 01004KT 27/20 A3006 RMK A01 T02730201  RH  064%=      5-min Rain = 0
KLO1 140650Z 01004KT 27/20 A3006 RMK A01 T02740202  RH  064%=      5-min Rain = 0
KLO1 140651Z 01004KT 28/20 A3006 RMK A01 T02750202  RH  064%=      5-min Rain = 0
KLO1 140652Z 01004KT 28/20 A3006 RMK A01 T02760203  RH  064%=      5-min Rain = 0
KLO1 140653Z 01004KT 28/20 A3006 RMK A01 T02770204  RH  064%=      5-min Rain = 0
KLO1 140654Z 01005KT 28/20 A3006 RMK A01 T02770204  RH  064%=      5-min Rain = 0
KLO1 140655Z 01004KT 28/20 A3006 RMK A01 T02780204  RH  064%=      5-min Rain = 0
KLO1 140656Z 01005KT 28/20 A3006 RMK A01 T02770204  RH  064%=      5-min Rain = 0
KLO1 140657Z 02005KT 28/21 A3006 RMK A01 T02780205  RH  065%=      5-min Rain = 0
KLO1 140658Z 02005KT 28/21 A3006 RMK A01 T02780205  RH  065%=      5-min Rain = 0
KLO1 140659Z 02005KT 28/21 A3006 RMK A01 T02780205  RH  064%=      5-min Rain = 0
KLO1 140700Z 02005KT 28/20 A3006 RMK A01 T02780204  RH  064%=      5-min Rain = 0
KLO1 140701Z 02005KT 28/20 A3005 RMK A01 T02770202  RH  064%=      5-min Rain = 0
KLO1 140702Z 02005KT 28/20 A3005 RMK A01 T02760202  RH  064%=      5-min Rain = 0
KLO1 140703Z 02005KT 28/20 A3005 RMK A01 T02750201  RH  064%=      5-min Rain = 0
KLO1 140704Z 03006KT 27/20 A3005 RMK A01 T02740201  RH  065%=      5-min Rain = 0
KLO1 140705Z 03007KT 27/20 A3005 RMK A01 T02730201  RH  065%=      5-min Rain = 0
KLO1 140706Z 03007KT 27/20 A3005 RMK A01 T02720203  RH  066%=      5-min Rain = 0
KLO1 140707Z 02006KT 27/20 A3005 RMK A01 T02730203  RH  066%=      5-min Rain = 0
KLO1 140708Z 02006KT 27/20 A3005 RMK A01 T02730204  RH  066%=      5-min Rain = 0
KLO1 140709Z 02005KT 27/20 A3006 RMK A01 T02740204  RH  065%=      5-min Rain = 0
KLO1 140710Z 02006KT 27/20 A3006 RMK A01 T02740203  RH  065%=      5-min Rain = 0
KLO1 140711Z 02006KT 27/20 A3006 RMK A01 T02740204  RH  066%=      5-min Rain = 0
KLO1 140712Z 02006KT 27/20 A3006 RMK A01 T02740204  RH  066%=      5-min Rain = 0
KLO1 140713Z 02006KT 27/21 A3006 RMK A01 T02730205  RH  066%=      5-min Rain = 0
KLO1 140714Z 02006KT 27/20 A3006 RMK A01 T02730204  RH  066%=      5-min Rain = 0
KLO1 140715Z 02006KT 27/21 A3006 RMK A01 T02740205  RH  066%=      5-min Rain = 0
KLO1 140716Z 03006KT 27/21 A3006 RMK A01 T02740205  RH  066%=      5-min Rain = 0
KLO1 140717Z 03005KT 27/21 A3006 RMK A01 T02740205  RH  066%=      5-min Rain = 0
KLO1 140718Z 02005KT 27/21 A3006 RMK A01 T02740205  RH  066%=      5-min Rain = 0
KLO1 140719Z 01005KT 27/21 A3006 RMK A01 T02740205  RH  066%=      5-min Rain = 0
KLO1 140720Z 01005KT 27/21 A3006 RMK A01 T02740206  RH  066%=      5-min Rain = 0
KLO1 140721Z 01005KT 27/21 A3006 RMK A01 T02740206  RH  066%=      5-min Rain = 0
KLO1 140722Z 01005KT 27/21 A3006 RMK A01 T02740206  RH  067%=      5-min Rain = 0
KLO1 140723Z 00005KT 27/21 A3006 RMK A01 T02740207  RH  067%=      5-min Rain = 0
KLO1 140724Z 01005KT 28/21 A3006 RMK A01 T02750207  RH  067%=      5-min Rain = 0
KLO1 140725Z 01005KT 28/21 A3006 RMK A01 T02760208  RH  066%=      5-min Rain = 0
KLO1 140726Z 00004KT 28/21 A3006 RMK A01 T02760208  RH  066%=      5-min Rain = 0
KLO1 140727Z 00005KT 28/21 A3006 RMK A01 T02760208  RH  066%=      5-min Rain = 0
KLO1 140728Z 01005KT 28/21 A3006 RMK A01 T02770209  RH  067%=      5-min Rain = 0
KLO1 140729Z 00005KT 28/21 A3006 RMK A01 T02770209  RH  066%=      5-min Rain = 0
KLO1 140730Z 36004KT 28/21 A3006 RMK A01 T02770209  RH  066%=      5-min Rain = 0
KLO1 140731Z 35004KT 28/21 A3006 RMK A01 T02770209  RH  066%=      5-min Rain = 0
KLO1 140732Z 35004KT 28/21 A3006 RMK A01 T02770209  RH  066%=      5-min Rain = 0
KLO1 140733Z 35004KT 28/21 A3006 RMK A01 T02770209  RH  066%=      5-min Rain = 0
KLO1 140734Z 00004KT 28/21 A3006 RMK A01 T02770209  RH  066%=      5-min Rain = 0
KLO1 140735Z 01004KT 28/21 A3006 RMK A01 T02770209  RH  066%=      5-min Rain = 0
KLO1 140736Z 00004KT 28/21 A3006 RMK A01 T02770208  RH  066%=      5-min Rain = 0
KLO1 140737Z 00004KT 28/21 A3006 RMK A01 T02760208  RH  066%=      5-min Rain = 0
KLO1 140738Z 01004KT 28/21 A3006 RMK A01 T02760208  RH  067%=      5-min Rain = 0
KLO1 140739Z 00005KT 28/21 A3006 RMK A01 T02760209  RH  067%=      5-min Rain = 0
KLO1 140740Z 01005KT 28/21 A3006 RMK A01 T02760209  RH  067%=      5-min Rain = 0
KLO1 140741Z 01004KT 28/21 A3006 RMK A01 T02760209  RH  067%=      5-min Rain = 0
KLO1 140742Z 00004KT 28/21 A3005 RMK A01 T02760208  RH  067%=      5-min Rain = 0
KLO1 140743Z 01004KT 28/21 A3005 RMK A01 T02750208  RH  067%=      5-min Rain = 0
KLO1 140744Z 02005KT 28/21 A3005 RMK A01 T02750208  RH  067%=      5-min Rain = 0
KLO1 140745Z 01005KT 27/21 A3005 RMK A01 T02740208  RH  067%=      5-min Rain = 0
KLO1 140746Z 02004KT 27/21 A3005 RMK A01 T02730208  RH  067%=      5-min Rain = 0
KLO1 140747Z 02005KT 27/21 A3005 RMK A01 T02730207  RH  067%=      5-min Rain = 0
KLO1 140748Z 02005KT 27/21 A3005 RMK A01 T02720207  RH  068%=      5-min Rain = 0
KLO1 140749Z 02005KT 27/21 A3005 RMK A01 T02720207  RH  068%=      5-min Rain = 0
KLO1 140750Z 02005KT 27/21 A3005 RMK A01 T02720208  RH  068%=      5-min Rain = 0
KLO1 140751Z 02005KT 27/21 A3005 RMK A01 T02720208  RH  068%=      5-min Rain = 0
KLO1 140752Z 02005KT 27/21 A3005 RMK A01 T02720208  RH  068%=      5-min Rain = 0
KLO1 140753Z 02005KT 27/21 A3005 RMK A01 T02720208  RH  068%=      5-min Rain = 0
KLO1 140754Z 02004KT 27/21 A3005 RMK A01 T02720208  RH  068%=      5-min Rain = 0
KLO1 140755Z 02004KT 27/21 A3005 RMK A01 T02720208  RH  068%=      5-min Rain = 0
KLO1 140756Z 01004KT 27/21 A3005 RMK A01 T02720208  RH  068%=      5-min Rain = 0
KLO1 140757Z 01004KT 27/21 A3005 RMK A01 T02720208  RH  068%=      5-min Rain = 0
KLO1 140758Z 01004KT 27/21 A3005 RMK A01 T02720208  RH  068%=      5-min Rain = 0
KLO1 140759Z 01005KT 27/21 A3005 RMK A01 T02710208  RH  068%=      5-min Rain = 0
KLO1 140800Z 01005KT 27/21 A3005 RMK A01 T02710209  RH  068%=      5-min Rain = 0
KLO1 140801Z 01005KT 27/21 A3005 RMK A01 T02720209  RH  068%=      5-min Rain = 0
KLO1 140802Z 01005KT 27/21 A3005 RMK A01 T02720208  RH  068%=      5-min Rain = 0
KLO1 140803Z 01005KT 27/21 A3005 RMK A01 T02720208  RH  068%=      5-min Rain = 0
KLO1 140804Z 01005KT 27/21 A3005 RMK A01 T02720208  RH  068%=      5-min Rain = 0
KLO1 140805Z 01005KT 27/21 A3005 RMK A01 T02720209  RH  068%=      5-min Rain = 0
KLO1 140806Z 00005KT 27/21 A3005 RMK A01 T02720208  RH  068%=      5-min Rain = 0
KLO1 140807Z 00005KT 27/21 A3005 RMK A01 T02720209  RH  068%=      5-min Rain = 0
KLO1 140808Z 00005KT 27/21 A3005 RMK A01 T02720208  RH  068%=      5-min Rain = 0
KLO1 140809Z 36004KT 27/21 A3005 RMK A01 T02720208  RH  068%=      5-min Rain = 0
KLO1 140810Z 36005KT 27/21 A3005 RMK A01 T02720209  RH  068%=      5-min Rain = 0
KLO1 140811Z 35004KT 27/21 A3005 RMK A01 T02720209  RH  068%=      5-min Rain = 0
KLO1 140812Z 36004KT 27/21 A3005 RMK A01 T02720209  RH  068%=      5-min Rain = 0
KLO1 140813Z 35005KT 27/21 A3005 RMK A01 T02720209  RH  068%=      5-min Rain = 0
KLO1 140814Z 35004KT 27/21 A3005 RMK A01 T02710209  RH  069%=      5-min Rain = 0
KLO1 140815Z 34004KT 27/21 A3005 RMK A01 T02710208  RH  069%=      5-min Rain = 0
KLO1 140816Z 34004KT 27/21 A3005 RMK A01 T02710208  RH  069%=      5-min Rain = 0
KLO1 140817Z 34004KT 27/21 A3005 RMK A01 T02700208  RH  069%=      5-min Rain = 0
KLO1 140818Z 35003KT 27/21 A3005 RMK A01 T02700208  RH  069%=      5-min Rain = 0
KLO1 140819Z 35004KT 27/21 A3005 RMK A01 T02700207  RH  069%=      5-min Rain = 0
KLO1 140820Z 34004KT 27/21 A3005 RMK A01 T02690207  RH  069%=      5-min Rain = 0
KLO1 140821Z 34004KT 27/21 A3005 RMK A01 T02690207  RH  069%=      5-min Rain = 0
KLO1 140822Z 34004KT 27/21 A3005 RMK A01 T02680207  RH  069%=      5-min Rain = 0
KLO1 140823Z 34004KT 27/21 A3005 RMK A01 T02680207  RH  069%=      5-min Rain = 0
KLO1 140824Z 34004KT 27/21 A3005 RMK A01 T02680207  RH  069%=      5-min Rain = 0
KLO1 140825Z 35004KT 27/21 A3005 RMK A01 T02680207  RH  069%=      5-min Rain = 0
KLO1 140826Z 35004KT 27/21 A3005 RMK A01 T02680207  RH  069%=      5-min Rain = 0
KLO1 140827Z 35004KT 27/21 A3005 RMK A01 T02680207  RH  069%=      5-min Rain = 0
KLO1 140828Z 35005KT 27/21 A3005 RMK A01 T02680207  RH  069%=      5-min Rain = 0
KLO1 140829Z 34005KT 27/21 A3005 RMK A01 T02680206  RH  069%=      5-min Rain = 0
KLO1 140830Z 34005KT 27/21 A3005 RMK A01 T02680206  RH  069%=      5-min Rain = 0
KLO1 140831Z 34005KT 27/21 A3005 RMK A01 T02680206  RH  069%=      5-min Rain = 0
KLO1 140832Z 34005KT 27/21 A3005 RMK A01 T02680206  RH  069%=      5-min Rain = 0
KLO1 140833Z 33004KT 27/21 A3005 RMK A01 T02670206  RH  069%=      5-min Rain = 0
KLO1 140834Z 34005KT 27/21 A3005 RMK A01 T02670205  RH  069%=      5-min Rain = 0
KLO1 140835Z 34004KT 27/21 A3005 RMK A01 T02670206  RH  069%=      5-min Rain = 0
KLO1 140836Z 34005KT 27/21 A3005 RMK A01 T02670205  RH  069%=      5-min Rain = 0
KLO1 140837Z 34004KT 27/21 A3005 RMK A01 T02670205  RH  069%=      5-min Rain = 0
KLO1 140838Z 34004KT 27/21 A3005 RMK A01 T02670205  RH  069%=      5-min Rain = 0
KLO1 140839Z 34004KT 27/21 A3005 RMK A01 T02670205  RH  069%=      5-min Rain = 0
KLO1 140840Z 35003KT 27/20 A3005 RMK A01 T02660204  RH  069%=      5-min Rain = 0
KLO1 140841Z 00004KT 27/21 A3005 RMK A01 T02670205  RH  069%=      5-min Rain = 0
KLO1 140842Z 36004KT 27/21 A3005 RMK A01 T02670205  RH  069%=      5-min Rain = 0
KLO1 140843Z 01004KT 27/21 A3005 RMK A01 T02670205  RH  069%=      5-min Rain = 0
KLO1 140844Z 01005KT 27/21 A3005 RMK A01 T02670205  RH  069%=      5-min Rain = 0
KLO1 140845Z 01005KT 27/21 A3005 RMK A01 T02670205  RH  069%=      5-min Rain = 0
KLO1 140846Z 01005KT 27/20 A3005 RMK A01 T02670204  RH  068%=      5-min Rain = 0
KLO1 140847Z 01004KT 27/21 A3005 RMK A01 T02680205  RH  068%=      5-min Rain = 0
KLO1 140848Z 01004KT 27/21 A3005 RMK A01 T02680205  RH  068%=      5-min Rain = 0
KLO1 140849Z 01004KT 27/21 A3005 RMK A01 T02680205  RH  068%=      5-min Rain = 0
KLO1 140850Z 01004KT 27/21 A3005 RMK A01 T02680205  RH  068%=      5-min Rain = 0
KLO1 140851Z 01004KT 27/20 A3005 RMK A01 T02670204  RH  068%=      5-min Rain = 0
KLO1 140852Z 01004KT 27/20 A3005 RMK A01 T02670204  RH  068%=      5-min Rain = 0
KLO1 140853Z 01004KT 27/20 A3005 RMK A01 T02670204  RH  068%=      5-min Rain = 0
KLO1 140854Z 01004KT 27/20 A3005 RMK A01 T02670204  RH  069%=      5-min Rain = 0
KLO1 140855Z 01005KT 27/20 A3005 RMK A01 T02660204  RH  069%=      5-min Rain = 0
KLO1 140856Z 01004KT 27/20 A3005 RMK A01 T02660204  RH  069%=      5-min Rain = 0
KLO1 140857Z 01004KT 27/20 A3005 RMK A01 T02650204  RH  069%=      5-min Rain = 0
KLO1 140858Z 00004KT 26/20 A3005 RMK A01 T02640203  RH  069%=      5-min Rain = 0
KLO1 140859Z 00005KT 26/20 A3005 RMK A01 T02630203  RH  070%=      5-min Rain = 0
KLO1 140900Z 00005KT 26/20 A3005 RMK A01 T02630204  RH  070%=      5-min Rain = 0
KLO1 140901Z 00004KT 26/20 A3005 RMK A01 T02630203  RH  070%=      5-min Rain = 0
KLO1 140902Z 00005KT 26/20 A3005 RMK A01 T02630203  RH  070%=      5-min Rain = 0
KLO1 140903Z 00006KT 26/20 A3006 RMK A01 T02630204  RH  070%=      5-min Rain = 0
KLO1 140904Z 00006KT 26/21 A3006 RMK A01 T02640205  RH  070%=      5-min Rain = 0
KLO1 140905Z 36005KT 26/20 A3006 RMK A01 T02640204  RH  070%=      5-min Rain = 0
KLO1 140906Z 35005KT 26/20 A3006 RMK A01 T02640204  RH  070%=      5-min Rain = 0
KLO1 140907Z 35005KT 26/20 A3006 RMK A01 T02640204  RH  070%=      5-min Rain = 0
KLO1 140908Z 35005KT 26/21 A3006 RMK A01 T02640205  RH  070%=      5-min Rain = 0
KLO1 140909Z 35005KT 26/21 A3006 RMK A01 T02640205  RH  070%=      5-min Rain = 0
KLO1 140910Z 35005KT 26/21 A3006 RMK A01 T02630205  RH  070%=      5-min Rain = 0
KLO1 140911Z 00004KT 26/21 A3005 RMK A01 T02630205  RH  070%=      5-min Rain = 0
KLO1 140912Z 36005KT 26/21 A3005 RMK A01 T02630205  RH  070%=      5-min Rain = 0
KLO1 140913Z 36005KT 26/21 A3005 RMK A01 T02630205  RH  070%=      5-min Rain = 0
KLO1 140914Z 36005KT 26/21 A3005 RMK A01 T02630205  RH  071%=      5-min Rain = 0
KLO1 140915Z 00005KT 26/21 A3005 RMK A01 T02630206  RH  071%=      5-min Rain = 0
KLO1 140916Z 01006KT 26/21 A3005 RMK A01 T02620206  RH  071%=      5-min Rain = 0
KLO1 140917Z 01005KT 26/21 A3005 RMK A01 T02620206  RH  071%=      5-min Rain = 0
KLO1 140918Z 01005KT 26/21 A3005 RMK A01 T02620206  RH  071%=      5-min Rain = 0
KLO1 140919Z 01005KT 26/21 A3005 RMK A01 T02610206  RH  071%=      5-min Rain = 0
KLO1 140920Z 01005KT 26/21 A3006 RMK A01 T02610206  RH  071%=      5-min Rain = 0
KLO1 140921Z 01005KT 26/21 A3006 RMK A01 T02610205  RH  072%=      5-min Rain = 0
KLO1 140922Z 01005KT 26/21 A3006 RMK A01 T02610205  RH  071%=      5-min Rain = 0
KLO1 140923Z 01005KT 26/21 A3006 RMK A01 T02610205  RH  071%=      5-min Rain = 0
KLO1 140924Z 02006KT 26/21 A3006 RMK A01 T02600205  RH  071%=      5-min Rain = 0
KLO1 140925Z 02007KT 26/21 A3006 RMK A01 T02600205  RH  071%=      5-min Rain = 0
KLO1 140926Z 02007KT 26/20 A3006 RMK A01 T02600204  RH  071%=      5-min Rain = 0
KLO1 140927Z 03008KT 26/20 A3006 RMK A01 T02600204  RH  071%=      5-min Rain = 0
KLO1 140928Z 03008KT 26/20 A3006 RMK A01 T02600203  RH  071%=      5-min Rain = 0
KLO1 140929Z 03007KT 26/20 A3005 RMK A01 T02600203  RH  071%=      5-min Rain = 0
KLO1 140930Z 04007KT 26/20 A3005 RMK A01 T02600203  RH  071%=      5-min Rain = 0
KLO1 140931Z 04007KT 26/20 A3005 RMK A01 T02600203  RH  071%=      5-min Rain = 0
KLO1 140932Z 04006KT 26/20 A3005 RMK A01 T02600203  RH  071%=      5-min Rain = 0
KLO1 140933Z 04006KT 26/20 A3005 RMK A01 T02600203  RH  071%=      5-min Rain = 0
KLO1 140934Z 05006KT 26/20 A3005 RMK A01 T02600203  RH  071%=      5-min Rain = 0
KLO1 140935Z 05007KT 26/20 A3005 RMK A01 T02600203  RH  071%=      5-min Rain = 0
KLO1 140936Z 05007KT 26/20 A3005 RMK A01 T02600203  RH  071%=      5-min Rain = 0
KLO1 140937Z 05008KT 26/20 A3005 RMK A01 T02600203  RH  071%=      5-min Rain = 0
KLO1 140938Z 05008KT 26/20 A3005 RMK A01 T02600202  RH  071%=      5-min Rain = 0
KLO1 140939Z 06008KT 26/20 A3005 RMK A01 T02600202  RH  071%=      5-min Rain = 0
KLO1 140940Z 06007KT 26/20 A3005 RMK A01 T02600203  RH  070%=      5-min Rain = 0
KLO1 140941Z 06008KT 26/20 A3005 RMK A01 T02610203  RH  070%=      5-min Rain = 0
KLO1 140942Z 06007KT 26/20 A3005 RMK A01 T02610203  RH  071%=      5-min Rain = 0
KLO1 140943Z 05009KT 26/20 A3005 RMK A01 T02610203  RH  071%=      5-min Rain = 0
KLO1 140944Z 06008KT 26/20 A3005 RMK A01 T02610203  RH  071%=      5-min Rain = 0
KLO1 140945Z 05007KT 26/20 A3005 RMK A01 T02610203  RH  071%=      5-min Rain = 0
KLO1 140946Z 05007KT 26/20 A3005 RMK A01 T02610203  RH  071%=      5-min Rain = 0
KLO1 140947Z 05008KT 26/20 A3005 RMK A01 T02600203  RH  071%=      5-min Rain = 0
KLO1 140948Z 06008KT 26/20 A3005 RMK A01 T02610204  RH  071%=      5-min Rain = 0
KLO1 140949Z 05008KT 26/20 A3005 RMK A01 T02600203  RH  071%=      5-min Rain = 0
KLO1 140950Z 05007KT 26/20 A3005 RMK A01 T02610203  RH  070%=      5-min Rain = 0
KLO1 140951Z 05006KT 26/20 A3004 RMK A01 T02610203  RH  071%=      5-min Rain = 0
KLO1 140952Z 06006KT 26/20 A3004 RMK A01 T02600203  RH  071%=      5-min Rain = 0
KLO1 140953Z 05005KT 26/20 A3004 RMK A01 T02590203  RH  071%=      5-min Rain = 0
KLO1 140954Z 05006KT 26/20 A3004 RMK A01 T02590203  RH  071%=      5-min Rain = 0
KLO1 140955Z 05006KT 26/20 A3005 RMK A01 T02590203  RH  071%=      5-min Rain = 0
KLO1 140956Z 04006KT 26/20 A3005 RMK A01 T02590203  RH  071%=      5-min Rain = 0
KLO1 140957Z 04006KT 26/20 A3005 RMK A01 T02590203  RH  071%=      5-min Rain = 0
KLO1 140958Z 04007KT 26/20 A3005 RMK A01 T02590203  RH  071%=      5-min Rain = 0
KLO1 140959Z 04007KT 26/20 A3005 RMK A01 T02590203  RH  071%=      5-min Rain = 0
KLO1 141000Z 04008KT 26/20 A3005 RMK A01 T02590203  RH  071%=      5-min Rain = 0
KLO1 141001Z 03007KT 26/20 A3005 RMK A01 T02580203  RH  071%=      5-min Rain = 0
KLO1 141002Z 04007KT 26/20 A3005 RMK A01 T02580203  RH  072%=      5-min Rain = 0
KLO1 141003Z 03008KT 26/20 A3005 RMK A01 T02580203  RH  072%=      5-min Rain = 0
KLO1 141004Z 04008KT 26/20 A3005 RMK A01 T02580203  RH  072%=      5-min Rain = 0
KLO1 141005Z 03007KT 26/20 A3005 RMK A01 T02580203  RH  072%=      5-min Rain = 0
KLO1 141006Z 03007KT 26/20 A3005 RMK A01 T02580204  RH  072%=      5-min Rain = 0
KLO1 141007Z 03007KT 26/20 A3005 RMK A01 T02580203  RH  072%=      5-min Rain = 0
KLO1 141008Z 03006KT 26/20 A3005 RMK A01 T02570203  RH  072%=      5-min Rain = 0
KLO1 141009Z 03006KT 26/20 A3005 RMK A01 T02570204  RH  072%=      5-min Rain = 0
KLO1 141010Z 03007KT 26/20 A3005 RMK A01 T02570204  RH  072%=      5-min Rain = 0
KLO1 141011Z 03007KT 26/20 A3005 RMK A01 T02570204  RH  073%=      5-min Rain = 0
KLO1 141012Z 03006KT 26/20 A3005 RMK A01 T02570204  RH  073%=      5-min Rain = 0
KLO1 141013Z 03007KT 26/20 A3005 RMK A01 T02570204  RH  073%=      5-min Rain = 0
KLO1 141014Z 03008KT 26/20 A3005 RMK A01 T02570204  RH  073%=      5-min Rain = 0
KLO1 141015Z 03008KT 26/20 A3005 RMK A01 T02570204  RH  073%=      5-min Rain = 0
KLO1 141016Z 03008KT 26/20 A3005 RMK A01 T02560204  RH  073%=      5-min Rain = 0
KLO1 141017Z 03009KT 26/20 A3005 RMK A01 T02560204  RH  073%=      5-min Rain = 0
KLO1 141018Z 03009KT 26/20 A3005 RMK A01 T02560204  RH  073%=      5-min Rain = 0
KLO1 141019Z 04009KT 26/20 A3005 RMK A01 T02560203  RH  073%=      5-min Rain = 0
KLO1 141020Z 03009KT 26/20 A3005 RMK A01 T02560203  RH  073%=      5-min Rain = 0
KLO1 141021Z 03010KT 26/20 A3005 RMK A01 T02560203  RH  073%=      5-min Rain = 0
KLO1 141022Z 03009KT 26/20 A3005 RMK A01 T02560203  RH  072%=      5-min Rain = 0
KLO1 141023Z 03010KT 26/20 A3005 RMK A01 T02570203  RH  072%=      5-min Rain = 0
KLO1 141024Z 03012KT 26/20 A3005 RMK A01 T02570203  RH  072%=      5-min Rain = 0
KLO1 141025Z 04011KT 26/20 A3005 RMK A01 T02570203  RH  072%=      5-min Rain = 0
KLO1 141026Z 03011KT 26/20 A3005 RMK A01 T02570203  RH  072%=      5-min Rain = 0
KLO1 141027Z 04012KT 26/20 A3005 RMK A01 T02570203  RH  072%=      5-min Rain = 0
KLO1 141028Z 04011KT 26/20 A3005 RMK A01 T02570203  RH  072%=      5-min Rain = 0
KLO1 141029Z 04011KT 26/20 A3005 RMK A01 T02570202  RH  072%=      5-min Rain = 0
KLO1 141030Z 04011KT 26/20 A3005 RMK A01 T02570202  RH  072%=      5-min Rain = 0
KLO1 141031Z 04011KT 26/20 A3005 RMK A01 T02570202  RH  072%=      5-min Rain = 0
KLO1 141032Z 04012KT 26/20 A3005 RMK A01 T02570202  RH  072%=      5-min Rain = 0
KLO1 141033Z 04010KT 26/20 A3005 RMK A01 T02570202  RH  072%=      5-min Rain = 0
KLO1 141034Z 04010G15KT 26/20 A3005 RMK A01 T02570202  RH  072%=      5-min Rain = 0
KLO1 141035Z 04011KT 26/20 A3005 RMK A01 T02570202  RH  072%=      5-min Rain = 0
KLO1 141036Z 04010KT 26/20 A3005 RMK A01 T02570203  RH  072%=      5-min Rain = 0
KLO1 141037Z 04009KT 26/20 A3005 RMK A01 T02570202  RH  072%=      5-min Rain = 0
KLO1 141038Z 04011KT 26/20 A3005 RMK A01 T02560202  RH  072%=      5-min Rain = 0
KLO1 141039Z 04009KT 26/20 A3005 RMK A01 T02560202  RH  072%=      5-min Rain = 0
KLO1 141040Z 04009KT 26/20 A3005 RMK A01 T02560202  RH  072%=      5-min Rain = 0
KLO1 141041Z 04008KT 26/20 A3005 RMK A01 T02560202  RH  072%=      5-min Rain = 0
KLO1 141042Z 04010KT 26/20 A3005 RMK A01 T02560202  RH  072%=      5-min Rain = 0
KLO1 141043Z 04009KT 26/20 A3005 RMK A01 T02560202  RH  072%=      5-min Rain = 0
KLO1 141044Z 04008KT 26/20 A3005 RMK A01 T02560202  RH  072%=      5-min Rain = 0
KLO1 141045Z 04008KT 26/20 A3005 RMK A01 T02550202  RH  072%=      5-min Rain = 0
KLO1 141046Z 04009KT 26/20 A3005 RMK A01 T02550202  RH  072%=      5-min Rain = 0
KLO1 141047Z 04009KT 26/20 A3005 RMK A01 T02550202  RH  072%=      5-min Rain = 0
KLO1 141048Z 04008KT 26/20 A3005 RMK A01 T02550202  RH  072%=      5-min Rain = 0
KLO1 141049Z 04008KT 26/20 A3005 RMK A01 T02550202  RH  073%=      5-min Rain = 0
KLO1 141050Z 04007KT 26/20 A3005 RMK A01 T02550202  RH  073%=      5-min Rain = 0
KLO1 141051Z 04006KT 26/20 A3005 RMK A01 T02550202  RH  073%=      5-min Rain = 0
KLO1 141052Z 04007KT 25/20 A3006 RMK A01 T02540202  RH  073%=      5-min Rain = 0
KLO1 141053Z 05007KT 25/20 A3006 RMK A01 T02540202  RH  073%=      5-min Rain = 0
KLO1 141054Z 04006KT 25/20 A3006 RMK A01 T02540202  RH  073%=      5-min Rain = 0
KLO1 141055Z 05005KT 25/20 A3006 RMK A01 T02540202  RH  073%=      5-min Rain = 0
KLO1 141056Z 05007KT 25/20 A3006 RMK A01 T02530202  RH  073%=      5-min Rain = 0
KLO1 141057Z 05006KT 25/20 A3006 RMK A01 T02530201  RH  073%=      5-min Rain = 0
KLO1 141058Z 05006KT 25/20 A3006 RMK A01 T02530202  RH  073%=      5-min Rain = 0
KLO1 141059Z 05007KT 25/20 A3006 RMK A01 T02530202  RH  073%=      5-min Rain = 0
KLO1 141100Z 05006KT 25/20 A3006 RMK A01 T02530201  RH  073%=      5-min Rain = 0
KLO1 141101Z 04007KT 25/20 A3006 RMK A01 T02530201  RH  073%=      5-min Rain = 0
KLO1 141102Z 04006KT 25/20 A3006 RMK A01 T02530202  RH  073%=      5-min Rain = 0
KLO1 141103Z 05006KT 25/20 A3006 RMK A01 T02530202  RH  073%=      5-min Rain = 0
KLO1 141104Z 04006KT 25/20 A3006 RMK A01 T02530202  RH  073%=      5-min Rain = 0
KLO1 141105Z 04006KT 25/20 A3006 RMK A01 T02520201  RH  073%=      5-min Rain = 0
KLO1 141106Z 04008KT 25/20 A3006 RMK A01 T02520201  RH  074%=      5-min Rain = 0
KLO1 141107Z 04007KT 25/20 A3006 RMK A01 T02520202  RH  074%=      5-min Rain = 0
KLO1 141108Z 04006KT 25/20 A3006 RMK A01 T02510201  RH  074%=      5-min Rain = 0
KLO1 141109Z 05007KT 25/20 A3006 RMK A01 T02520202  RH  074%=      5-min Rain = 0
KLO1 141110Z 04007KT 25/20 A3006 RMK A01 T02520202  RH  074%=      5-min Rain = 0
KLO1 141111Z 05007KT 25/20 A3006 RMK A01 T02510201  RH  074%=      5-min Rain = 0
KLO1 141112Z 04008KT 25/20 A3006 RMK A01 T02510202  RH  074%=      5-min Rain = 0
KLO1 141113Z 05009KT 25/20 A3006 RMK A01 T02510202  RH  074%=      5-min Rain = 0
KLO1 141114Z 05010KT 25/20 A3006 RMK A01 T02510202  RH  074%=      5-min Rain = 0
KLO1 141115Z 04008KT 25/20 A3006 RMK A01 T02510202  RH  074%=      5-min Rain = 0
KLO1 141116Z 04009KT 25/20 A3007 RMK A01 T02510202  RH  074%=      5-min Rain = 0
KLO1 141117Z 05007KT 25/20 A3007 RMK A01 T02510202  RH  074%=      5-min Rain = 0
KLO1 141118Z 05009KT 25/20 A3007 RMK A01 T02510202  RH  074%=      5-min Rain = 0
KLO1 141119Z 05009KT 25/20 A3007 RMK A01 T02500202  RH  075%=      5-min Rain = 0
KLO1 141120Z 05007KT 25/20 A3007 RMK A01 T02510202  RH  075%=      5-min Rain = 0
KLO1 141121Z 05008KT 25/20 A3007 RMK A01 T02500202  RH  075%=      5-min Rain = 0
KLO1 141122Z 05009KT 25/20 A3007 RMK A01 T02500202  RH  075%=      5-min Rain = 0
KLO1 141123Z 05008KT 25/20 A3007 RMK A01 T02500202  RH  075%=      5-min Rain = 0
KLO1 141124Z 04008KT 25/20 A3007 RMK A01 T02500202  RH  075%=      5-min Rain = 0
KLO1 141125Z 04009KT 25/20 A3007 RMK A01 T02500202  RH  075%=      5-min Rain = 0
KLO1 141126Z 04009KT 25/20 A3007 RMK A01 T02490202  RH  075%=      5-min Rain = 0
KLO1 141127Z 04009KT 25/20 A3007 RMK A01 T02490202  RH  075%=      5-min Rain = 0
KLO1 141128Z 04010KT 25/20 A3007 RMK A01 T02490202  RH  075%=      5-min Rain = 0
KLO1 141129Z 05009KT 25/20 A3007 RMK A01 T02500202  RH  075%=      5-min Rain = 0
KLO1 141130Z 04011KT 25/20 A3007 RMK A01 T02490202  RH  075%=      5-min Rain = 0
KLO1 141131Z 04010KT 25/20 A3007 RMK A01 T02490201  RH  075%=      5-min Rain = 0
KLO1 141132Z 04010KT 25/20 A3007 RMK A01 T02490201  RH  075%=      5-min Rain = 0
KLO1 141133Z 04010KT 25/20 A3007 RMK A01 T02490201  RH  075%=      5-min Rain = 0
KLO1 141134Z 04012KT 25/20 A3007 RMK A01 T02500201  RH  075%=      5-min Rain = 0
KLO1 141135Z 04011KT 25/20 A3007 RMK A01 T02500201  RH  074%=      5-min Rain = 0
KLO1 141136Z 04010KT 25/20 A3007 RMK A01 T02500201  RH  074%=      5-min Rain = 0
KLO1 141137Z 04012KT 25/20 A3007 RMK A01 T02500201  RH  074%=      5-min Rain = 0
KLO1 141138Z 04012KT 25/20 A3008 RMK A01 T02500201  RH  074%=      5-min Rain = 0
KLO1 141139Z 04011KT 25/20 A3008 RMK A01 T02500201  RH  074%=      5-min Rain = 0
KLO1 141140Z 04010KT 25/20 A3008 RMK A01 T02500201  RH  074%=      5-min Rain = 0
KLO1 141141Z 04009KT 25/20 A3008 RMK A01 T02500201  RH  074%=      5-min Rain = 0
KLO1 141142Z 04009KT 25/20 A3008 RMK A01 T02500201  RH  074%=      5-min Rain = 0
KLO1 141143Z 04012KT 25/20 A3008 RMK A01 T02490201  RH  074%=      5-min Rain = 0
KLO1 141144Z 05012KT 25/20 A3008 RMK A01 T02490201  RH  075%=      5-min Rain = 0
KLO1 141145Z 05010KT 25/20 A3008 RMK A01 T02490201  RH  074%=      5-min Rain = 0
KLO1 141146Z 04009KT 25/20 A3008 RMK A01 T02500201  RH  074%=      5-min Rain = 0
KLO1 141147Z 04011KT 25/20 A3008 RMK A01 T02500201  RH  074%=      5-min Rain = 0
KLO1 141148Z 04010KT 25/20 A3008 RMK A01 T02500201  RH  074%=      5-min Rain = 0
KLO1 141149Z 05011KT 25/20 A3008 RMK A01 T02490201  RH  074%=      5-min Rain = 0
KLO1 141150Z 04011KT 25/20 A3008 RMK A01 T02490201  RH  075%=      5-min Rain = 0
KLO1 141151Z 04011KT 25/20 A3008 RMK A01 T02490201  RH  075%=      5-min Rain = 0
KLO1 141152Z 04009KT 25/20 A3008 RMK A01 T02490201  RH  074%=      5-min Rain = 0
KLO1 141153Z 05010KT 25/20 A3008 RMK A01 T02490200  RH  075%=      5-min Rain = 0
KLO1 141154Z 04009KT 25/20 A3008 RMK A01 T02490201  RH  075%=      5-min Rain = 0
KLO1 141155Z 04010KT 25/20 A3008 RMK A01 T02480201  RH  075%=      5-min Rain = 0
KLO1 141156Z 05010KT 25/20 A3008 RMK A01 T02480201  RH  075%=      5-min Rain = 0
KLO1 141157Z 04009KT 25/20 A3008 RMK A01 T02480201  RH  075%=      5-min Rain = 0
KLO1 141158Z 05010KT 25/20 A3008 RMK A01 T02480200  RH  075%=      5-min Rain = 0
KLO1 141159Z 05011KT 25/20 A3008 RMK A01 T02480200  RH  075%=      5-min Rain = 0
KLO1 141200Z 04011KT 25/20 A3008 RMK A01 T02480201  RH  075%=      5-min Rain = 0
KLO1 141201Z 04012KT 25/20 A3008 RMK A01 T02480201  RH  075%=      5-min Rain = 0
KLO1 141202Z 04011KT 25/20 A3008 RMK A01 T02480201  RH  075%=      5-min Rain = 0
KLO1 141203Z 04010KT 25/20 A3008 RMK A01 T02480200  RH  075%=      5-min Rain = 0
KLO1 141204Z 04010KT 25/20 A3008 RMK A01 T02480200  RH  075%=      5-min Rain = 0
KLO1 141205Z 04010KT 25/20 A3008 RMK A01 T02470200  RH  075%=      5-min Rain = 0
KLO1 141206Z 04012KT 25/20 A3008 RMK A01 T02470201  RH  075%=      5-min Rain = 0
KLO1 141207Z 05011KT 25/20 A3008 RMK A01 T02470201  RH  075%=      5-min Rain = 0
KLO1 141208Z 04011KT 25/20 A3008 RMK A01 T02470201  RH  075%=      5-min Rain = 0
KLO1 141209Z 05012KT 25/20 A3008 RMK A01 T02470201  RH  075%=      5-min Rain = 0
KLO1 141210Z 05010KT 25/20 A3008 RMK A01 T02470200  RH  075%=      5-min Rain = 0
KLO1 141211Z 04011KT 25/20 A3009 RMK A01 T02470201  RH  075%=      5-min Rain = 0
KLO1 141212Z 05010KT 25/20 A3009 RMK A01 T02470200  RH  075%=      5-min Rain = 0
KLO1 141213Z 05010KT 25/20 A3009 RMK A01 T02470201  RH  076%=      5-min Rain = 0
KLO1 141214Z 05010KT 25/20 A3009 RMK A01 T02460201  RH  076%=      5-min Rain = 0
KLO1 141215Z 05010KT 25/20 A3009 RMK A01 T02470201  RH  076%=      5-min Rain = 0
KLO1 141216Z 04011KT 25/20 A3009 RMK A01 T02460201  RH  076%=      5-min Rain = 0
KLO1 141217Z 04011KT 25/20 A3009 RMK A01 T02460200  RH  076%=      5-min Rain = 0
KLO1 141218Z 05010KT 25/20 A3009 RMK A01 T02460200  RH  076%=      5-min Rain = 0
KLO1 141219Z 04010KT 25/20 A3009 RMK A01 T02460200  RH  076%=      5-min Rain = 0
KLO1 141220Z 04011KT 25/20 A3009 RMK A01 T02460200  RH  076%=      5-min Rain = 0
KLO1 141221Z 04011KT 25/20 A3009 RMK A01 T02460200  RH  076%=      5-min Rain = 0
KLO1 141222Z 04012KT 25/20 A3009 RMK A01 T02460200  RH  076%=      5-min Rain = 0
KLO1 141223Z 04013KT 25/20 A3009 RMK A01 T02460200  RH  076%=      5-min Rain = 0
KLO1 141224Z 04011KT 25/20 A3009 RMK A01 T02460200  RH  076%=      5-min Rain = 0
KLO1 141225Z 04013KT 25/20 A3009 RMK A01 T02460200  RH  075%=      5-min Rain = 0
KLO1 141226Z 05011KT 25/20 A3009 RMK A01 T02460200  RH  076%=      5-min Rain = 0
KLO1 141227Z 05009KT 25/20 A3009 RMK A01 T02460200  RH  076%=      5-min Rain = 0
KLO1 141228Z 04010KT 25/20 A3009 RMK A01 T02460200  RH  076%=      5-min Rain = 0
KLO1 141229Z 05010KT 25/20 A3009 RMK A01 T02460200  RH  076%=      5-min Rain = 0
KLO1 141230Z 05009KT 25/20 A3009 RMK A01 T02460200  RH  076%=      5-min Rain = 0
KLO1 141231Z 05009KT 25/20 A3009 RMK A01 T02460200  RH  076%=      5-min Rain = 0
KLO1 141232Z 04009KT 25/20 A3009 RMK A01 T02460200  RH  076%=      5-min Rain = 0
KLO1 141233Z 05010KT 25/20 A301 RMK A01 T02460200  RH  076%=      5-min Rain = 0
KLO1 141234Z 05010KT 25/20 A301 RMK A01 T02460200  RH  076%=      5-min Rain = 0
KLO1 141235Z 04009KT 25/20 A301 RMK A01 T02460200  RH  076%=      5-min Rain = 0
KLO1 141236Z 05011KT 25/20 A301 RMK A01 T02460200  RH  076%=      5-min Rain = 0
KLO1 141237Z 05012KT 25/20 A301 RMK A01 T02460200  RH  075%=      5-min Rain = 0
KLO1 141238Z 05011KT 25/20 A301 RMK A01 T02460200  RH  075%=      5-min Rain = 0
KLO1 141239Z 05012KT 25/20 A301 RMK A01 T02460200  RH  075%=      5-min Rain = 0
KLO1 141240Z 05011KT 25/20 A301 RMK A01 T02460200  RH  075%=      5-min Rain = 0
KLO1 141241Z 04013KT 25/20 A301 RMK A01 T02460199  RH  075%=      5-min Rain = 0
KLO1 141242Z 05010KT 25/20 A301 RMK A01 T02470200  RH  075%=      5-min Rain = 0
KLO1 141243Z 05011KT 25/20 A301 RMK A01 T02470200  RH  075%=      5-min Rain = 0
KLO1 141244Z 05011KT 25/20 A301 RMK A01 T02470200  RH  075%=      5-min Rain = 0
KLO1 141245Z 05011KT 25/20 A301 RMK A01 T02470200  RH  075%=      5-min Rain = 0
KLO1 141246Z 05010KT 25/20 A301 RMK A01 T02470199  RH  075%=      5-min Rain = 0
KLO1 141247Z 05012KT 25/20 A3011 RMK A01 T02470200  RH  075%=      5-min Rain = 0
KLO1 141248Z 05011KT 25/20 A3011 RMK A01 T02470200  RH  075%=      5-min Rain = 0
KLO1 141249Z 04011KT 25/20 A3011 RMK A01 T02470200  RH  075%=      5-min Rain = 0
KLO1 141250Z 05011KT 25/20 A3011 RMK A01 T02470200  RH  075%=      5-min Rain = 0
KLO1 141251Z 04012KT 25/20 A3011 RMK A01 T02480200  RH  074%=      5-min Rain = 0
KLO1 141252Z 05012KT 25/20 A3011 RMK A01 T02480200  RH  074%=      5-min Rain = 0
KLO1 141253Z 05011KT 25/20 A3011 RMK A01 T02480199  RH  074%=      5-min Rain = 0
KLO1 141254Z 05011KT 25/20 A3011 RMK A01 T02480200  RH  074%=      5-min Rain = 0
KLO1 141255Z 04011KT 25/20 A3011 RMK A01 T02480199  RH  074%=      5-min Rain = 0
KLO1 141256Z 04010KT 25/20 A3011 RMK A01 T02480199  RH  074%=      5-min Rain = 0
KLO1 141257Z 04011KT 25/20 A3011 RMK A01 T02490199  RH  074%=      5-min Rain = 0
KLO1 141258Z 04010KT 25/20 A3011 RMK A01 T02490199  RH  074%=      5-min Rain = 0
KLO1 141259Z 04014KT 25/20 A3011 RMK A01 T02500199  RH  073%=      5-min Rain = 0
KLO1 141300Z 04013KT 25/20 A3011 RMK A01 T02500198  RH  073%=      5-min Rain = 0
KLO1 141301Z 05016KT 25/20 A3012 RMK A01 T02500199  RH  073%=      5-min Rain = 0
KLO1 141302Z 05014KT 25/20 A3012 RMK A01 T02500198  RH  073%=      5-min Rain = 0
KLO1 141303Z 05016KT 25/20 A3012 RMK A01 T02500198  RH  073%=      5-min Rain = 0
KLO1 141304Z 04015KT 25/20 A3012 RMK A01 T02500198  RH  073%=      5-min Rain = 0
KLO1 141305Z 05013KT 25/20 A3011 RMK A01 T02510198  RH  072%=      5-min Rain = 0
KLO1 141306Z 05013KT 25/20 A3011 RMK A01 T02510198  RH  072%=      5-min Rain = 0
KLO1 141307Z 05014KT 25/20 A3011 RMK A01 T02510198  RH  072%=      5-min Rain = 0
KLO1 141308Z 05012KT 25/20 A3011 RMK A01 T02510198  RH  072%=      5-min Rain = 0
KLO1 141309Z 05011KT 25/20 A3011 RMK A01 T02510199  RH  073%=      5-min Rain = 0
KLO1 141310Z 05011KT 25/20 A3011 RMK A01 T02510198  RH  072%=      5-min Rain = 0
KLO1 141311Z 05011KT 25/20 A3011 RMK A01 T02520199  RH  072%=      5-min Rain = 0
KLO1 141312Z 05012KT 25/20 A3011 RMK A01 T02530198  RH  072%=      5-min Rain = 0
KLO1 141313Z 05012KT 25/20 A3011 RMK A01 T02530198  RH  072%=      5-min Rain = 0
KLO1 141314Z 05012KT 25/20 A3011 RMK A01 T02530198  RH  072%=      5-min Rain = 0
KLO1 141315Z 05012KT 25/20 A3011 RMK A01 T02530198  RH  072%=      5-min Rain = 0
KLO1 141316Z 05010KT 25/20 A3011 RMK A01 T02530198  RH  072%=      5-min Rain = 0
KLO1 141317Z 04010KT 25/20 A3011 RMK A01 T02530198  RH  072%=      5-min Rain = 0
KLO1 141318Z 04010KT 26/20 A3011 RMK A01 T02550199  RH  071%=      5-min Rain = 0
KLO1 141319Z 05011KT 26/20 A3011 RMK A01 T02550199  RH  071%=      5-min Rain = 0
KLO1 141320Z 04010KT 26/20 A3011 RMK A01 T02560198  RH  071%=      5-min Rain = 0
KLO1 141321Z 04010KT 26/20 A3012 RMK A01 T02560199  RH  071%=      5-min Rain = 0
KLO1 141322Z 04011KT 26/20 A3012 RMK A01 T02560198  RH  070%=      5-min Rain = 0
KLO1 141323Z 04012KT 26/20 A3012 RMK A01 T02570198  RH  070%=      5-min Rain = 0
KLO1 141324Z 04014KT 26/20 A3012 RMK A01 T02560198  RH  070%=      5-min Rain = 0
KLO1 141325Z 05014G19KT 26/20 A3012 RMK A01 T02570198  RH  070%=      5-min Rain = 0
KLO1 141326Z 05014KT 26/20 A3012 RMK A01 T02560197  RH  070%=      5-min Rain = 0
KLO1 141327Z 04011KT 26/20 A3012 RMK A01 T02560198  RH  070%=      5-min Rain = 0
KLO1 141328Z 04010KT 26/20 A3012 RMK A01 T02560198  RH  070%=      5-min Rain = 0
KLO1 141329Z 04014KT 26/20 A3012 RMK A01 T02570198  RH  070%=      5-min Rain = 0
KLO1 141330Z 04015KT 26/20 A3012 RMK A01 T02570197  RH  070%=      5-min Rain = 0
KLO1 141331Z 04013KT 26/20 A3012 RMK A01 T02560197  RH  070%=      5-min Rain = 0
KLO1 141332Z 04015KT 26/20 A3012 RMK A01 T02570197  RH  070%=      5-min Rain = 0
KLO1 141333Z 03018KT 26/20 A3012 RMK A01 T02570197  RH  070%=      5-min Rain = 0
KLO1 141334Z 04014KT 26/20 A3012 RMK A01 T02560196  RH  069%=      5-min Rain = 0
KLO1 141335Z 05017KT 26/20 A3012 RMK A01 T02570196  RH  069%=      5-min Rain = 0
KLO1 141336Z 05015KT 26/20 A3012 RMK A01 T02560196  RH  070%=      5-min Rain = 0
KLO1 141337Z 05014KT 26/20 A3012 RMK A01 T02550197  RH  070%=      5-min Rain = 0
KLO1 141338Z 05013G18KT 26/20 A3012 RMK A01 T02550196  RH  070%=      5-min Rain = 0
KLO1 141339Z 04013KT 26/20 A3012 RMK A01 T02560197  RH  070%=      5-min Rain = 0
KLO1 141340Z 05017KT 26/20 A3013 RMK A01 T02570197  RH  069%=      5-min Rain = 0
KLO1 141341Z 04015G20KT 26/20 A3013 RMK A01 T02560197  RH  070%=      5-min Rain = 0
KLO1 141342Z 04016KT 26/20 A3013 RMK A01 T02560197  RH  070%=      5-min Rain = 0
KLO1 141343Z 04014KT 26/20 A3013 RMK A01 T02560197  RH  070%=      5-min Rain = 0
KLO1 141344Z 04014G21KT 26/20 A3013 RMK A01 T02570197  RH  069%=      5-min Rain = 0
KLO1 141345Z 04017G22KT 26/20 A3013 RMK A01 T02580197  RH  069%=      5-min Rain = 0
KLO1 141346Z 04012KT 26/20 A3013 RMK A01 T02580198  RH  069%=      5-min Rain = 0
KLO1 141347Z 03014KT 26/20 A3013 RMK A01 T02590198  RH  069%=      5-min Rain = 0
KLO1 141348Z 04016G21KT 26/20 A3013 RMK A01 T02590198  RH  069%=      5-min Rain = 0
KLO1 141349Z 04018KT 26/20 A3013 RMK A01 T02600198  RH  069%=      5-min Rain = 0
KLO1 141350Z 04016KT 26/20 A3013 RMK A01 T02590198  RH  069%=      5-min Rain = 0
KLO1 141351Z 05013KT 26/20 A3013 RMK A01 T02580198  RH  069%=      5-min Rain = 0
KLO1 141352Z 04015KT 26/20 A3013 RMK A01 T02580198  RH  069%=      5-min Rain = 0
KLO1 141353Z 04015KT 26/20 A3013 RMK A01 T02590198  RH  069%=      5-min Rain = 0
KLO1 141354Z 05013KT 26/20 A3013 RMK A01 T02590198  RH  069%=      5-min Rain = 0
KLO1 141355Z 05013KT 26/20 A3013 RMK A01 T02590198  RH  069%=      5-min Rain = 0
KLO1 141356Z 05014KT 26/20 A3013 RMK A01 T02600198  RH  069%=      5-min Rain = 0
KLO1 141357Z 05013KT 26/20 A3014 RMK A01 T02600199  RH  069%=      5-min Rain = 0
KLO1 141358Z 05012KT 26/20 A3014 RMK A01 T02600198  RH  069%=      5-min Rain = 0
KLO1 141359Z 04011KT 26/20 A3014 RMK A01 T02600198  RH  069%=      5-min Rain = 0
KLO1 141400Z 04014KT 26/20 A3014 RMK A01 T02620198  RH  068%=      5-min Rain = 0
KLO1 141401Z 04013KT 26/20 A3014 RMK A01 T02620198  RH  068%=      5-min Rain = 0
KLO1 141402Z 03016KT 26/20 A3014 RMK A01 T02630197  RH  067%=      5-min Rain = 0
KLO1 141403Z 04017KT 26/20 A3014 RMK A01 T02640197  RH  067%=      5-min Rain = 0
KLO1 141404Z 04016KT 26/20 A3014 RMK A01 T02620197  RH  067%=      5-min Rain = 0
KLO1 141405Z 03016KT 26/20 A3014 RMK A01 T02610197  RH  068%=      5-min Rain = 0
KLO1 141406Z 03014KT 26/20 A3014 RMK A01 T02620197  RH  067%=      5-min Rain = 0
KLO1 141407Z 03018KT 26/20 A3014 RMK A01 T02640197  RH  067%=      5-min Rain = 0
KLO1 141408Z 02019KT 26/20 A3014 RMK A01 T02630197  RH  067%=      5-min Rain = 0
KLO1 141409Z 03018KT 26/20 A3014 RMK A01 T02620197  RH  067%=      5-min Rain = 0
KLO1 141410Z 03019KT 26/20 A3014 RMK A01 T02610197  RH  068%=      5-min Rain = 0
KLO1 141411Z 04019KT 26/20 A3014 RMK A01 T02610197  RH  068%=      5-min Rain = 0
KLO1 141412Z 04017KT 26/20 A3014 RMK A01 T02620197  RH  068%=      5-min Rain = 0
KLO1 141413Z 03016KT 26/20 A3014 RMK A01 T02620198  RH  068%=      5-min Rain = 0
KLO1 141414Z 03016G21KT 26/20 A3014 RMK A01 T02620198  RH  068%=      5-min Rain = 0
KLO1 141415Z 03017KT 26/20 A3014 RMK A01 T02620197  RH  067%=      5-min Rain = 0
KLO1 141416Z 03018KT 26/20 A3014 RMK A01 T02630197  RH  067%=      5-min Rain = 0
KLO1 141417Z 03016G21KT 26/20 A3014 RMK A01 T02630198  RH  067%=      5-min Rain = 0
KLO1 141418Z 03019KT 26/20 A3014 RMK A01 T02630198  RH  067%=      5-min Rain = 0
KLO1 141419Z 03017KT 26/20 A3014 RMK A01 T02620198  RH  068%=      5-min Rain = 0
KLO1 141420Z 03016KT 26/20 A3014 RMK A01 T02610198  RH  068%=      5-min Rain = 0
KLO1 141421Z 04016KT 26/20 A3014 RMK A01 T02620198  RH  068%=      5-min Rain = 0
KLO1 141422Z 04017KT 26/20 A3014 RMK A01 T02620198  RH  068%=      5-min Rain = 0
KLO1 141423Z 04017KT 26/20 A3014 RMK A01 T02620198  RH  068%=      5-min Rain = 0
KLO1 141424Z 04017KT 26/20 A3014 RMK A01 T02620199  RH  068%=      5-min Rain = 0
KLO1 141425Z 04015KT 26/20 A3014 RMK A01 T02620200  RH  069%=      5-min Rain = 0
KLO1 141426Z 04017G22KT 26/20 A3014 RMK A01 T02640200  RH  068%=      5-min Rain = 0
KLO1 141427Z 03014KT 26/20 A3014 RMK A01 T02640200  RH  068%=      5-min Rain = 0
KLO1 141428Z 02018KT 27/20 A3014 RMK A01 T02670201  RH  067%=      5-min Rain = 0
KLO1 141429Z 03018KT 27/20 A3014 RMK A01 T02670201  RH  067%=      5-min Rain = 0
KLO1 141430Z 03017KT 27/20 A3014 RMK A01 T02650200  RH  068%=      5-min Rain = 0
KLO1 141431Z 03016KT 26/20 A3014 RMK A01 T02640200  RH  068%=      5-min Rain = 0
KLO1 141432Z 04016KT 26/20 A3014 RMK A01 T02640201  RH  068%=      5-min Rain = 0
KLO1 141433Z 03017KT 27/20 A3014 RMK A01 T02650201  RH  068%=      5-min Rain = 0
KLO1 141434Z 03015KT 27/20 A3014 RMK A01 T02660201  RH  067%=      5-min Rain = 0
KLO1 141435Z 04016KT 27/20 A3014 RMK A01 T02670201  RH  067%=      5-min Rain = 0
KLO1 141436Z 04016KT 27/20 A3014 RMK A01 T02660201  RH  067%=      5-min Rain = 0
KLO1 141437Z 04017KT 27/20 A3015 RMK A01 T02660201  RH  068%=      5-min Rain = 0
KLO1 141438Z 03018KT 26/20 A3015 RMK A01 T02640201  RH  068%=      5-min Rain = 0
KLO1 141439Z 03017KT 26/20 A3015 RMK A01 T02640201  RH  068%=      5-min Rain = 0
KLO1 141440Z 03016KT 26/20 A3015 RMK A01 T02630201  RH  069%=      5-min Rain = 0
KLO1 141441Z 03014KT 26/20 A3015 RMK A01 T02640201  RH  068%=      5-min Rain = 0
KLO1 141442Z 03014KT 27/20 A3015 RMK A01 T02660202  RH  068%=      5-min Rain = 0
KLO1 141443Z 02017KT 27/20 A3015 RMK A01 T02680202  RH  067%=      5-min Rain = 0
KLO1 141444Z 02017KT 27/20 A3015 RMK A01 T02690202  RH  067%=      5-min Rain = 0
KLO1 141445Z 02020KT 27/20 A3015 RMK A01 T02680202  RH  067%=      5-min Rain = 0
KLO1 141446Z 03019KT 27/20 A3015 RMK A01 T02670201  RH  067%=      5-min Rain = 0
KLO1 141447Z 03019KT 27/20 A3015 RMK A01 T02670201  RH  067%=      5-min Rain = 0
KLO1 141448Z 02017KT 27/20 A3015 RMK A01 T02670201  RH  067%=      5-min Rain = 0
KLO1 141449Z 03016KT 27/20 A3015 RMK A01 T02690201  RH  066%=      5-min Rain = 0
KLO1 141450Z 02019KT 27/20 A3015 RMK A01 T02690201  RH  066%=      5-min Rain = 0
KLO1 141451Z 02019KT 27/20 A3016 RMK A01 T02700201  RH  066%=      5-min Rain = 0
KLO1 141452Z 02018KT 27/20 A3016 RMK A01 T02700200  RH  066%=      5-min Rain = 0
KLO1 141453Z 03018KT 27/20 A3016 RMK A01 T02700201  RH  066%=      5-min Rain = 0
KLO1 141454Z 03017KT 27/20 A3016 RMK A01 T02700201  RH  066%=      5-min Rain = 0
KLO1 141455Z 03018KT 27/20 A3016 RMK A01 T02700200  RH  066%=      5-min Rain = 0
KLO1 141456Z 03018KT 27/20 A3016 RMK A01 T02670200  RH  066%=      5-min Rain = 0
KLO1 141457Z 03014KT 27/20 A3016 RMK A01 T02650199  RH  067%=      5-min Rain = 0
KLO1 141458Z 03013KT 27/20 A3016 RMK A01 T02650199  RH  067%=      5-min Rain = 0
KLO1 141459Z 04016KT 27/20 A3016 RMK A01 T02680200  RH  067%=      5-min Rain = 0
KLO1 141500Z 05017KT 27/20 A3016 RMK A01 T02690200  RH  066%=      5-min Rain = 0
KLO1 141501Z 04015KT 27/20 A3016 RMK A01 T02670200  RH  067%=      5-min Rain = 0
KLO1 141502Z 04018KT 27/20 A3016 RMK A01 T02670199  RH  066%=      5-min Rain = 0
KLO1 141503Z 03017KT 27/20 A3016 RMK A01 T02680199  RH  066%=      5-min Rain = 0
KLO1 141504Z 03015KT 27/20 A3016 RMK A01 T02680199  RH  066%=      5-min Rain = 0
KLO1 141505Z 05015KT 27/20 A3016 RMK A01 T02710201  RH  065%=      5-min Rain = 0
KLO1 141506Z 04013KT 27/20 A3016 RMK A01 T02720200  RH  065%=      5-min Rain = 0
KLO1 141507Z 04013G18KT 27/20 A3016 RMK A01 T02730201  RH  065%=      5-min Rain = 0
KLO1 141508Z 04016KT 27/20 A3017 RMK A01 T02730200  RH  064%=      5-min Rain = 0
KLO1 141509Z 03016KT 27/20 A3016 RMK A01 T02730198  RH  064%=      5-min Rain = 0
KLO1 141510Z 03015KT 27/20 A3017 RMK A01 T02720198  RH  064%=      5-min Rain = 0
KLO1 141511Z 02016KT 27/20 A3017 RMK A01 T02720198  RH  064%=      5-min Rain = 0
KLO1 141512Z 02018KT 27/20 A3016 RMK A01 T02720198  RH  064%=      5-min Rain = 0
KLO1 141513Z 03014KT 27/20 A3017 RMK A01 T02710198  RH  064%=      5-min Rain = 0
KLO1 141514Z 03015KT 27/20 A3017 RMK A01 T02700198  RH  065%=      5-min Rain = 0
KLO1 141515Z 03014KT 27/20 A3017 RMK A01 T02700197  RH  064%=      5-min Rain = 0
KLO1 141516Z 02013KT 27/20 A3017 RMK A01 T02710198  RH  064%=      5-min Rain = 0
KLO1 141517Z 03015KT 27/20 A3017 RMK A01 T02740198  RH  064%=      5-min Rain = 0
KLO1 141518Z 02015KT 27/20 A3017 RMK A01 T02740198  RH  063%=      5-min Rain = 0
KLO1 141519Z 02016KT 27/20 A3017 RMK A01 T02730198  RH  064%=      5-min Rain = 0
KLO1 141520Z 02015KT 27/20 A3017 RMK A01 T02710197  RH  064%=      5-min Rain = 0
KLO1 141521Z 03013G19KT 27/20 A3017 RMK A01 T02690198  RH  065%=      5-min Rain = 0
KLO1 141522Z 02018KT 27/20 A3017 RMK A01 T02700197  RH  065%=      5-min Rain = 0
KLO1 141523Z 03019G24KT 27/20 A3017 RMK A01 T02700197  RH  064%=      5-min Rain = 0
KLO1 141524Z 04018KT 27/20 A3017 RMK A01 T02700198  RH  064%=      5-min Rain = 0
KLO1 141525Z 03016KT 27/20 A3017 RMK A01 T02690197  RH  065%=      5-min Rain = 0
KLO1 141526Z 04014KT 27/20 A3017 RMK A01 T02690198  RH  065%=      5-min Rain = 0
KLO1 141527Z 04013KT 27/20 A3017 RMK A01 T02720199  RH  064%=      5-min Rain = 0
KLO1 141528Z 03015KT 28/20 A3017 RMK A01 T02750200  RH  063%=      5-min Rain = 0
KLO1 141529Z 04019KT 28/20 A3017 RMK A01 T02770199  RH  063%=      5-min Rain = 0
KLO1 141530Z 03019KT 27/20 A3018 RMK A01 T02740198  RH  063%=      5-min Rain = 0
KLO1 141531Z 03018KT 27/20 A3018 RMK A01 T02710197  RH  064%=      5-min Rain = 0
KLO1 141532Z 04018KT 27/20 A3017 RMK A01 T02700197  RH  064%=      5-min Rain = 0
KLO1 141533Z 04017KT 27/20 A3018 RMK A01 T02710197  RH  064%=      5-min Rain = 0
KLO1 141534Z 04017KT 27/20 A3017 RMK A01 T02720198  RH  064%=      5-min Rain = 0
KLO1 141535Z 04016KT 27/20 A3017 RMK A01 T02730198  RH  064%=      5-min Rain = 0
KLO1 141536Z 03017KT 27/20 A3017 RMK A01 T02730199  RH  064%=      5-min Rain = 0
KLO1 141537Z 04017KT 27/20 A3017 RMK A01 T02740199  RH  063%=      5-min Rain = 0
KLO1 141538Z 03018KT 28/20 A3018 RMK A01 T02750199  RH  063%=      5-min Rain = 0
KLO1 141539Z 03017G22KT 28/20 A3018 RMK A01 T02780199  RH  062%=      5-min Rain = 0
KLO1 141540Z 04018KT 28/20 A3018 RMK A01 T02790199  RH  062%=      5-min Rain = 0
KLO1 141541Z 03019KT 28/20 A3018 RMK A01 T02790199  RH  062%=      5-min Rain = 0
KLO1 141542Z 02019KT 28/20 A3018 RMK A01 T02780198  RH  062%=      5-min Rain = 0
KLO1 141543Z 02019KT 28/20 A3018 RMK A01 T02770198  RH  062%=      5-min Rain = 0
KLO1 141544Z 04016KT 28/20 A3018 RMK A01 T02770199  RH  063%=      5-min Rain = 0
KLO1 141545Z 04016G21KT 28/20 A3018 RMK A01 T02760198  RH  063%=      5-min Rain = 0
KLO1 141546Z 02020KT 27/20 A3018 RMK A01 T02740198  RH  063%=      5-min Rain = 0
KLO1 141547Z 02016KT 27/20 A3018 RMK A01 T02740198  RH  063%=      5-min Rain = 0
KLO1 141548Z 02015KT 28/20 A3018 RMK A01 T02770198  RH  062%=      5-min Rain = 0
KLO1 141549Z 03019KT 28/20 A3018 RMK A01 T02800199  RH  061%=      5-min Rain = 0
KLO1 141550Z 03020KT 28/20 A3018 RMK A01 T02810199  RH  061%=      5-min Rain = 0
KLO1 141551Z 03020KT 28/20 A3018 RMK A01 T02800198  RH  061%=      5-min Rain = 0
KLO1 141552Z 04018G23KT 28/20 A3018 RMK A01 T02780197  RH  061%=      5-min Rain = 0
KLO1 141553Z 03020KT 27/20 A3018 RMK A01 T02740197  RH  063%=      5-min Rain = 0
KLO1 141554Z 02021KT 27/20 A3018 RMK A01 T02740197  RH  063%=      5-min Rain = 0
KLO1 141555Z 03019KT 28/20 A3018 RMK A01 T02750197  RH  062%=      5-min Rain = 0
KLO1 141556Z 03019KT 28/20 A3018 RMK A01 T02780198  RH  062%=      5-min Rain = 0
KLO1 141557Z 04019G24KT 28/20 A3018 RMK A01 T02780197  RH  061%=      5-min Rain = 0
KLO1 141558Z 03021KT 28/20 A3018 RMK A01 T02780196  RH  061%=      5-min Rain = 0
KLO1 141559Z 03019KT 28/20 A3018 RMK A01 T02780196  RH  061%=      5-min Rain = 0
KLO1 141600Z 04016KT 28/20 A3018 RMK A01 T02790197  RH  061%=      5-min Rain = 0
KLO1 141601Z 03016KT 28/20 A3018 RMK A01 T02810198  RH  060%=      5-min Rain = 0
KLO1 141602Z 03018KT 28/20 A3018 RMK A01 T02820197  RH  060%=      5-min Rain = 0
KLO1 141603Z 03016KT 28/20 A3018 RMK A01 T02810197  RH  060%=      5-min Rain = 0
KLO1 141604Z 03017KT 28/20 A3018 RMK A01 T02800197  RH  060%=      5-min Rain = 0
KLO1 141605Z 04017KT 28/20 A3018 RMK A01 T02790197  RH  061%=      5-min Rain = 0
KLO1 141606Z 04015KT 28/20 A3018 RMK A01 T02810198  RH  061%=      5-min Rain = 0
KLO1 141607Z 04016KT 29/20 A3018 RMK A01 T02860198  RH  059%=      5-min Rain = 0
KLO1 141608Z 03015KT 29/20 A3018 RMK A01 T02850198  RH  059%=      5-min Rain = 0
KLO1 141609Z 03015G20KT 28/20 A3018 RMK A01 T02830198  RH  060%=      5-min Rain = 0
KLO1 141610Z 03017KT 28/20 A3018 RMK A01 T02830198  RH  060%=      5-min Rain = 0
KLO1 141611Z 04014KT 28/20 A3018 RMK A01 T02830198  RH  060%=      5-min Rain = 0
KLO1 141612Z 06011KT 28/20 A3018 RMK A01 T02820199  RH  061%=      5-min Rain = 0
KLO1 141613Z 06011KT 28/20 A3018 RMK A01 T02820199  RH  061%=      5-min Rain = 0
KLO1 141614Z 06013KT 28/20 A3018 RMK A01 T02840198  RH  060%=      5-min Rain = 0
KLO1 141615Z 05012KT 28/20 A3018 RMK A01 T02830198  RH  060%=      5-min Rain = 0
KLO1 141616Z 05014G19KT 28/20 A3018 RMK A01 T02840198  RH  060%=      5-min Rain = 0
KLO1 141617Z 05015KT 29/20 A3018 RMK A01 T02850197  RH  059%=      5-min Rain = 0
KLO1 141618Z 04016KT 28/20 A3018 RMK A01 T02840197  RH  059%=      5-min Rain = 0
KLO1 141619Z 04017KT 28/20 A3018 RMK A01 T02830197  RH  059%=      5-min Rain = 0
KLO1 141620Z 02015KT 28/20 A3018 RMK A01 T02830197  RH  060%=      5-min Rain = 0
KLO1 141621Z 04015G20KT 28/20 A3018 RMK A01 T02830197  RH  060%=      5-min Rain = 0
KLO1 141622Z 04014KT 28/20 A3018 RMK A01 T02830197  RH  060%=      5-min Rain = 0
KLO1 141623Z 04016KT 28/20 A3018 RMK A01 T02830198  RH  060%=      5-min Rain = 0
KLO1 141624Z 05012G17KT 28/20 A3018 RMK A01 T02830198  RH  060%=      5-min Rain = 0
KLO1 141625Z 05012KT 29/20 A3018 RMK A01 T02850199  RH  060%=      5-min Rain = 0
KLO1 141626Z 05017KT 29/20 A3018 RMK A01 T02870198  RH  059%=      5-min Rain = 0
KLO1 141627Z 05014KT 29/20 A3018 RMK A01 T02860199  RH  059%=      5-min Rain = 0
KLO1 141628Z 05012KT 29/20 A3018 RMK A01 T02860198  RH  059%=      5-min Rain = 0
KLO1 141629Z 04011G18KT 29/20 A3018 RMK A01 T02870199  RH  059%=      5-min Rain = 0
KLO1 141630Z 04015KT 29/20 A3018 RMK A01 T02870199  RH  059%=      5-min Rain = 0
KLO1 141631Z 04017KT 29/20 A3018 RMK A01 T02890198  RH  058%=      5-min Rain = 0
KLO1 141632Z 05014KT 29/20 A3019 RMK A01 T02890198  RH  058%=      5-min Rain = 0
KLO1 141633Z 05014KT 29/20 A3019 RMK A01 T02890199  RH  058%=      5-min Rain = 0
KLO1 141634Z 04014KT 29/20 A3019 RMK A01 T02870198  RH  059%=      5-min Rain = 0
KLO1 141635Z 04014KT 29/20 A3019 RMK A01 T02870198  RH  059%=      5-min Rain = 0
KLO1 141636Z 03011KT 28/20 A3018 RMK A01 T02840198  RH  059%=      5-min Rain = 0
KLO1 141637Z 03013KT 29/20 A3018 RMK A01 T02850197  RH  059%=      5-min Rain = 0
KLO1 141638Z 04014G19KT 29/20 A3018 RMK A01 T02860199  RH  059%=      5-min Rain = 0
KLO1 141639Z 06014KT 29/20 A3018 RMK A01 T02880199  RH  059%=      5-min Rain = 0
KLO1 141640Z 06013KT 29/20 A3018 RMK A01 T02900199  RH  058%=      5-min Rain = 0
KLO1 141641Z 06013KT 29/20 A3018 RMK A01 T02910199  RH  058%=      5-min Rain = 0
KLO1 141642Z 07011KT 29/20 A3018 RMK A01 T02900199  RH  058%=      5-min Rain = 0
KLO1 141643Z 05014KT 29/20 A3018 RMK A01 T02900199  RH  058%=      5-min Rain = 0
KLO1 141644Z 05013KT 29/20 A3018 RMK A01 T02910199  RH  058%=      5-min Rain = 0
KLO1 141645Z 06011KT 29/20 A3018 RMK A01 T02910198  RH  057%=      5-min Rain = 0
KLO1 141646Z 05010KT 29/20 A3018 RMK A01 T02890199  RH  059%=      5-min Rain = 0
KLO1 141647Z 04014KT 29/20 A3018 RMK A01 T02900199  RH  058%=      5-min Rain = 0
KLO1 141648Z 04014KT 29/20 A3018 RMK A01 T02900198  RH  057%=      5-min Rain = 0
KLO1 141649Z 03013KT 29/20 A3018 RMK A01 T02920199  RH  057%=      5-min Rain = 0
KLO1 141650Z 04014KT 29/20 A3018 RMK A01 T02920199  RH  057%=      5-min Rain = 0
KLO1 141651Z 04013KT 29/20 A3018 RMK A01 T02930198  RH  056%=      5-min Rain = 0
KLO1 141652Z 06015KT 29/20 A3018 RMK A01 T02930198  RH  057%=      5-min Rain = 0
KLO1 141653Z 05015KT 29/20 A3018 RMK A01 T02930199  RH  057%=      5-min Rain = 0
KLO1 141654Z 05013G18KT 29/20 A3018 RMK A01 T02920198  RH  057%=      5-min Rain = 0
KLO1 141655Z 05009KT 29/20 A3018 RMK A01 T02920200  RH  058%=      5-min Rain = 0
KLO1 141656Z 06013KT 30/20 A3018 RMK A01 T02950200  RH  056%=      5-min Rain = 0
KLO1 141657Z 07013KT 30/20 A3018 RMK A01 T02960199  RH  056%=      5-min Rain = 0
KLO1 141658Z 07011KT 29/20 A3018 RMK A01 T02940198  RH  056%=      5-min Rain = 0
KLO1 141659Z 05012KT 29/20 A3018 RMK A01 T02930199  RH  057%=      5-min Rain = 0
KLO1 141700Z 06013G18KT 29/20 A3018 RMK A01 T02940199  RH  057%=      5-min Rain = 0
KLO1 141701Z 05016KT 29/20 A3018 RMK A01 T02940199  RH  057%=      5-min Rain = 0
KLO1 141702Z 06011G16KT 30/20 A3018 RMK A01 T02950199  RH  056%=      5-min Rain = 0
KLO1 141703Z 06014KT 30/20 A3018 RMK A01 T02980200  RH  056%=      5-min Rain = 0
KLO1 141704Z 05011KT 30/20 A3018 RMK A01 T02980200  RH  056%=      5-min Rain = 0
KLO1 141705Z 06014KT 30/20 A3018 RMK A01 T02970199  RH  056%=      5-min Rain = 0
KLO1 141706Z 05011G17KT 30/20 A3018 RMK A01 T02960200  RH  056%=      5-min Rain = 0
KLO1 141707Z 06012KT 30/20 A3018 RMK A01 T02970200  RH  056%=      5-min Rain = 0
KLO1 141708Z 06014KT 30/20 A3018 RMK A01 T03000200  RH  055%=      5-min Rain = 0
KLO1 141709Z 05016KT 30/20 A3018 RMK A01 T03010200  RH  055%=      5-min Rain = 0
KLO1 141710Z 03016KT 30/20 A3018 RMK A01 T03000199  RH  055%=      5-min Rain = 0
KLO1 141711Z 04012KT 30/20 A3018 RMK A01 T02990198  RH  055%=      5-min Rain = 0
KLO1 141712Z 02010KT 30/20 A3017 RMK A01 T02990198  RH  055%=      5-min Rain = 0
KLO1 141713Z 04012G17KT 30/20 A3017 RMK A01 T03020200  RH  054%=      5-min Rain = 0
KLO1 141714Z 04013KT 31/20 A3018 RMK A01 T03060199  RH  053%=      5-min Rain = 0
KLO1 141715Z 03011KT 30/20 A3018 RMK A01 T03010198  RH  054%=      5-min Rain = 0
KLO1 141716Z 04009KT 30/20 A3017 RMK A01 T02990199  RH  055%=      5-min Rain = 0
KLO1 141717Z 06010KT 30/20 A3017 RMK A01 T02980199  RH  055%=      5-min Rain = 0
KLO1 141718Z 04009KT 30/20 A3017 RMK A01 T03000199  RH  055%=      5-min Rain = 0
KLO1 141719Z 03013KT 30/20 A3017 RMK A01 T03020199  RH  054%=      5-min Rain = 0
KLO1 141720Z 03014KT 30/20 A3017 RMK A01 T03040199  RH  054%=      5-min Rain = 0
KLO1 141721Z 04014KT 31/20 A3017 RMK A01 T03070198  RH  052%=      5-min Rain = 0
KLO1 141722Z 04011G17KT 31/20 A3017 RMK A01 T03050199  RH  053%=      5-min Rain = 0
KLO1 141723Z 05014G19KT 31/20 A3017 RMK A01 T03050199  RH  053%=      5-min Rain = 0
KLO1 141724Z 05014KT 31/20 A3017 RMK A01 T03050199  RH  053%=      5-min Rain = 0
KLO1 141725Z 06011KT 30/20 A3017 RMK A01 T03040198  RH  053%=      5-min Rain = 0
KLO1 141726Z 07011KT 31/20 A3017 RMK A01 T03060201  RH  053%=      5-min Rain = 0
KLO1 141727Z 07012KT 31/20 A3017 RMK A01 T03070199  RH  053%=      5-min Rain = 0
KLO1 141728Z 06009KT 30/20 A3017 RMK A01 T03040199  RH  053%=      5-min Rain = 0
KLO1 141729Z 04010KT 30/20 A3017 RMK A01 T03020198  RH  054%=      5-min Rain = 0
KLO1 141730Z 05010KT 30/20 A3017 RMK A01 T03030199  RH  054%=      5-min Rain = 0
KLO1 141731Z 06011KT 31/20 A3017 RMK A01 T03060200  RH  053%=      5-min Rain = 0
KLO1 141732Z 06009KT 31/20 A3017 RMK A01 T03060198  RH  053%=      5-min Rain = 0
KLO1 141733Z 08010KT 31/20 A3017 RMK A01 T03050199  RH  053%=      5-min Rain = 0
KLO1 141734Z 05006KT 31/20 A3016 RMK A01 T03060199  RH  053%=      5-min Rain = 0
KLO1 141735Z 04014KT 31/20 A3016 RMK A01 T03090199  RH  052%=      5-min Rain = 0
KLO1 141736Z 04011KT 31/20 A3017 RMK A01 T03120198  RH  051%=      5-min Rain = 0
KLO1 141737Z 05010G15KT 31/20 A3016 RMK A01 T03110199  RH  052%=      5-min Rain = 0
KLO1 141738Z 06011KT 31/20 A3016 RMK A01 T03110199  RH  051%=      5-min Rain = 0
KLO1 141739Z 05013KT 31/20 A3016 RMK A01 T03110199  RH  052%=      5-min Rain = 0
KLO1 141740Z 05012KT 31/20 A3016 RMK A01 T03120200  RH  051%=      5-min Rain = 0
KLO1 141741Z 06013G19KT 31/20 A3016 RMK A01 T03110198  RH  051%=      5-min Rain = 0
KLO1 141742Z 05015KT 31/20 A3016 RMK A01 T03080198  RH  052%=      5-min Rain = 0
KLO1 141743Z 05017KT 31/20 A3016 RMK A01 T03080198  RH  052%=      5-min Rain = 0
KLO1 141744Z 05014KT 31/20 A3016 RMK A01 T03070198  RH  052%=      5-min Rain = 0
KLO1 141745Z 06012KT 31/20 A3016 RMK A01 T03060198  RH  052%=      5-min Rain = 0
KLO1 141746Z 05015KT 31/20 A3016 RMK A01 T03050197  RH  053%=      5-min Rain = 0
KLO1 141747Z 05013KT 31/20 A3016 RMK A01 T03050197  RH  052%=      5-min Rain = 0
KLO1 141748Z 04014KT 31/20 A3016 RMK A01 T03050196  RH  052%=      5-min Rain = 0
KLO1 141749Z 04014KT 31/20 A3016 RMK A01 T03050196  RH  052%=      5-min Rain = 0
KLO1 141750Z 03013KT 31/20 A3016 RMK A01 T03050196  RH  052%=      5-min Rain = 0
KLO1 141751Z 03011KT 31/20 A3016 RMK A01 T03050196  RH  052%=      5-min Rain = 0
KLO1 141752Z 05011KT 31/20 A3015 RMK A01 T03070198  RH  052%=      5-min Rain = 0
KLO1 141753Z 04012G17KT 31/20 A3015 RMK A01 T03110199  RH  051%=      5-min Rain = 0
KLO1 141754Z 07014KT 31/20 A3015 RMK A01 T03140198  RH  050%=      5-min Rain = 0
KLO1 141755Z 07011KT 31/20 A3015 RMK A01 T03130196  RH  050%=      5-min Rain = 0
KLO1 141756Z 07011KT 31/20 A3015 RMK A01 T03090197  RH  051%=      5-min Rain = 0
KLO1 141757Z 07012KT 31/20 A3015 RMK A01 T03110198  RH  051%=      5-min Rain = 0
KLO1 141758Z 08013KT 31/20 A3015 RMK A01 T03110198  RH  051%=      5-min Rain = 0
KLO1 141759Z 07012KT 31/20 A3015 RMK A01 T03110199  RH  051%=      5-min Rain = 0
KLO1 141800Z 06008KT 31/20 A3015 RMK A01 T03100198  RH  051%=      5-min Rain = 0
KLO1 141801Z 08011KT 31/20 A3015 RMK A01 T03090198  RH  052%=      5-min Rain = 0
KLO1 141802Z 07010KT 31/20 A3015 RMK A01 T03090197  RH  051%=      5-min Rain = 0
KLO1 141803Z 03014KT 31/20 A3015 RMK A01 T03100198  RH  051%=      5-min Rain = 0
KLO1 141804Z 02017KT 31/20 A3015 RMK A01 T03120196  RH  050%=      5-min Rain = 0
KLO1 141805Z 04013KT 31/20 A3015 RMK A01 T03110197  RH  051%=      5-min Rain = 0
KLO1 141806Z 07010KT 31/20 A3015 RMK A01 T03120198  RH  051%=      5-min Rain = 0
KLO1 141807Z 06008KT 31/20 A3015 RMK A01 T03140198  RH  050%=      5-min Rain = 0
KLO1 141808Z 05009KT 31/20 A3015 RMK A01 T03120197  RH  051%=      5-min Rain = 0
KLO1 141809Z 04014KT 31/20 A3015 RMK A01 T03110198  RH  051%=      5-min Rain = 0
KLO1 141810Z 06014KT 32/20 A3015 RMK A01 T03150199  RH  050%=      5-min Rain = 0
KLO1 141811Z 06013KT 32/20 A3015 RMK A01 T03150198  RH  050%=      5-min Rain = 0
KLO1 141812Z 06015KT 31/20 A3015 RMK A01 T03140198  RH  050%=      5-min Rain = 0
KLO1 141813Z 06012G17KT 31/20 A3015 RMK A01 T03110197  RH  051%=      5-min Rain = 0
KLO1 141814Z 05009KT 31/20 A3015 RMK A01 T03100198  RH  051%=      5-min Rain = 0
KLO1 141815Z 06012G18KT 31/20 A3015 RMK A01 T03110198  RH  051%=      5-min Rain = 0
KLO1 141816Z 06014KT 32/20 A3015 RMK A01 T03150198  RH  050%=      5-min Rain = 0
KLO1 141817Z 06011KT 32/20 A3015 RMK A01 T03160198  RH  050%=      5-min Rain = 0
KLO1 141818Z 07010KT 32/20 A3014 RMK A01 T03160199  RH  050%=      5-min Rain = 0
KLO1 141819Z 06010KT 32/20 A3014 RMK A01 T03160197  RH  049%=      5-min Rain = 0
KLO1 141820Z 05013G18KT 32/20 A3014 RMK A01 T03150196  RH  049%=      5-min Rain = 0
KLO1 141821Z 05015KT 32/20 A3014 RMK A01 T03160196  RH  049%=      5-min Rain = 0
KLO1 141822Z 05012KT 32/20 A3014 RMK A01 T03170196  RH  049%=      5-min Rain = 0
KLO1 141823Z 05010KT 32/20 A3014 RMK A01 T03170196  RH  049%=      5-min Rain = 0
KLO1 141824Z 04010KT 32/20 A3014 RMK A01 T03160196  RH  049%=      5-min Rain = 0
KLO1 141825Z 04010KT 32/20 A3014 RMK A01 T03160196  RH  049%=      5-min Rain = 0
KLO1 141826Z 04012KT 32/20 A3014 RMK A01 T03180196  RH  049%=      5-min Rain = 0
KLO1 141827Z 05012KT 32/20 A3014 RMK A01 T03180197  RH  049%=      5-min Rain = 0
KLO1 141828Z 04010KT 32/20 A3014 RMK A01 T03180197  RH  049%=      5-min Rain = 0
KLO1 141829Z 03009KT 32/20 A3014 RMK A01 T03190198  RH  049%=      5-min Rain = 0
KLO1 141830Z 03009KT 32/20 A3014 RMK A01 T03190197  RH  049%=      5-min Rain = 0
KLO1 141831Z 05008KT 32/20 A3014 RMK A01 T03180198  RH  049%=      5-min Rain = 0
KLO1 141832Z 06007G13KT 32/20 A3014 RMK A01 T03170199  RH  049%=      5-min Rain = 0
KLO1 141833Z 05013KT 32/20 A3014 RMK A01 T03200197  RH  048%=      5-min Rain = 0
KLO1 141834Z 06010KT 32/20 A3014 RMK A01 T03210197  RH  048%=      5-min Rain = 0
KLO1 141835Z 07011KT 32/20 A3014 RMK A01 T03210197  RH  048%=      5-min Rain = 0
KLO1 141836Z 07010KT 32/20 A3014 RMK A01 T03210197  RH  048%=      5-min Rain = 0
KLO1 141837Z 06013KT 32/20 A3014 RMK A01 T03230195  RH  047%=      5-min Rain = 0
KLO1 141838Z 06011KT 32/20 A3014 RMK A01 T03200195  RH  047%=      5-min Rain = 0
KLO1 141839Z 07012KT 32/20 A3014 RMK A01 T03190196  RH  048%=      5-min Rain = 0
KLO1 141840Z 05008KT 32/20 A3014 RMK A01 T03180196  RH  049%=      5-min Rain = 0
KLO1 141841Z 06007KT 32/20 A3014 RMK A01 T03210195  RH  047%=      5-min Rain = 0
KLO1 141842Z 04010G17KT 32/20 A3014 RMK A01 T03210195  RH  047%=      5-min Rain = 0
KLO1 141843Z 04013KT 32/19 A3014 RMK A01 T03210193  RH  047%=      5-min Rain = 0
KLO1 141844Z 03013KT 32/19 A3013 RMK A01 T03220194  RH  047%=      5-min Rain = 0
KLO1 141845Z 03011KT 33/19 A3013 RMK A01 T03250193  RH  046%=      5-min Rain = 0
KLO1 141846Z 04009KT 32/19 A3013 RMK A01 T03230192  RH  046%=      5-min Rain = 0
KLO1 141847Z 05013KT 32/19 A3013 RMK A01 T03240192  RH  046%=      5-min Rain = 0
KLO1 141848Z 05011KT 32/19 A3013 RMK A01 T03240190  RH  045%=      5-min Rain = 0
KLO1 141849Z 04013KT 32/19 A3013 RMK A01 T03220190  RH  046%=      5-min Rain = 0
KLO1 141850Z 04010KT 32/19 A3013 RMK A01 T03230189  RH  045%=      5-min Rain = 0
KLO1 141851Z 04011KT 32/19 A3013 RMK A01 T03230190  RH  046%=      5-min Rain = 0
KLO1 141852Z 05012KT 33/19 A3013 RMK A01 T03250193  RH  046%=      5-min Rain = 0
KLO1 141853Z 06011KT 33/19 A3013 RMK A01 T03280192  RH  045%=      5-min Rain = 0
KLO1 141854Z 08010KT 33/19 A3013 RMK A01 T03270191  RH  045%=      5-min Rain = 0
KLO1 141855Z 06009KT 33/19 A3013 RMK A01 T03250192  RH  045%=      5-min Rain = 0
KLO1 141856Z 07010KT 33/19 A3013 RMK A01 T03260193  RH  046%=      5-min Rain = 0
KLO1 141857Z 07009KT 33/19 A3013 RMK A01 T03260193  RH  045%=      5-min Rain = 0
KLO1 141858Z 06011KT 33/19 A3013 RMK A01 T03280194  RH  045%=      5-min Rain = 0
KLO1 141859Z 06011KT 33/19 A3013 RMK A01 T03280192  RH  045%=      5-min Rain = 0
KLO1 141900Z 07008KT 33/19 A3012 RMK A01 T03250192  RH  045%=      5-min Rain = 0
KLO1 141901Z 06011KT 33/20 A3012 RMK A01 T03260195  RH  046%=      5-min Rain = 0
KLO1 141902Z 07012KT 33/19 A3012 RMK A01 T03270194  RH  045%=      5-min Rain = 0
KLO1 141903Z 07009KT 32/19 A3012 RMK A01 T03240194  RH  046%=      5-min Rain = 0
KLO1 141904Z 07010KT 32/19 A3012 RMK A01 T03230194  RH  046%=      5-min Rain = 0
KLO1 141905Z 06007KT 32/20 A3012 RMK A01 T03230195  RH  047%=      5-min Rain = 0
KLO1 141906Z 05008KT 33/19 A3012 RMK A01 T03250194  RH  046%=      5-min Rain = 0
KLO1 141907Z 05014KT 33/19 A3012 RMK A01 T03250194  RH  046%=      5-min Rain = 0
KLO1 141908Z 05013KT 33/19 A3012 RMK A01 T03260194  RH  046%=      5-min Rain = 0
KLO1 141909Z 07011KT 33/20 A3012 RMK A01 T03300195  RH  045%=      5-min Rain = 0
KLO1 141910Z 07008KT 33/19 A3012 RMK A01 T03320194  RH  044%=      5-min Rain = 0
KLO1 141911Z 07009KT 33/20 A3012 RMK A01 T03320195  RH  044%=      5-min Rain = 0
KLO1 141912Z 07007KT 33/19 A3012 RMK A01 T03320193  RH  044%=      5-min Rain = 0
KLO1 141913Z 06010G15KT 33/19 A3012 RMK A01 T03300193  RH  044%=      5-min Rain = 0
KLO1 141914Z 06014G19KT 33/19 A3012 RMK A01 T03290192  RH  045%=      5-min Rain = 0
KLO1 141915Z 07013KT 33/19 A3012 RMK A01 T03280192  RH  045%=      5-min Rain = 0
KLO1 141916Z 07012KT 33/19 A3012 RMK A01 T03300190  RH  044%=      5-min Rain = 0
KLO1 141917Z 07010KT 33/19 A3011 RMK A01 T03300191  RH  044%=      5-min Rain = 0
KLO1 141918Z 07011KT 33/19 A3011 RMK A01 T03310191  RH  044%=      5-min Rain = 0
KLO1 141919Z 08012KT 33/19 A3011 RMK A01 T03300192  RH  044%=      5-min Rain = 0
KLO1 141920Z 08008KT 33/19 A3011 RMK A01 T03290190  RH  044%=      5-min Rain = 0
KLO1 141921Z 07007KT 33/19 A3011 RMK A01 T03260190  RH  045%=      5-min Rain = 0
KLO1 141922Z 07008KT 33/19 A3011 RMK A01 T03270192  RH  045%=      5-min Rain = 0
KLO1 141923Z 07011G17KT 33/19 A3011 RMK A01 T03290191  RH  044%=      5-min Rain = 0
KLO1 141924Z 07013KT 33/19 A3011 RMK A01 T03310189  RH  043%=      5-min Rain = 0
KLO1 141925Z 05012KT 33/19 A3011 RMK A01 T03330190  RH  043%=      5-min Rain = 0
KLO1 141926Z 04012KT 33/19 A3011 RMK A01 T03340188  RH  042%=      5-min Rain = 0
KLO1 141927Z 04011KT 33/19 A3011 RMK A01 T03330187  RH  042%=      5-min Rain = 0
KLO1 141928Z 05010KT 33/19 A3011 RMK A01 T03330186  RH  042%=      5-min Rain = 0
KLO1 141929Z 05010KT 33/19 A301 RMK A01 T03340187  RH  042%=      5-min Rain = 0
KLO1 141930Z 05011KT 34/19 A301 RMK A01 T03350189  RH  042%=      5-min Rain = 0
KLO1 141931Z 05010KT 33/19 A301 RMK A01 T03340187  RH  042%=      5-min Rain = 0
KLO1 141932Z 05012KT 33/19 A301 RMK A01 T03310189  RH  043%=      5-min Rain = 0
KLO1 141933Z 05010KT 33/19 A301 RMK A01 T03300190  RH  044%=      5-min Rain = 0
KLO1 141934Z 04009KT 33/19 A301 RMK A01 T03300190  RH  044%=      5-min Rain = 0
KLO1 141935Z 02010KT 33/19 A301 RMK A01 T03290190  RH  044%=      5-min Rain = 0
KLO1 141936Z 03013KT 33/19 A301 RMK A01 T03310191  RH  044%=      5-min Rain = 0
KLO1 141937Z 05011KT 34/19 A301 RMK A01 T03350190  RH  042%=      5-min Rain = 0
KLO1 141938Z 05012KT 34/19 A301 RMK A01 T03380186  RH  041%=      5-min Rain = 0
KLO1 141939Z 05010KT 34/19 A3009 RMK A01 T03360185  RH  041%=      5-min Rain = 0
KLO1 141940Z 06010KT 34/19 A3009 RMK A01 T03350186  RH  041%=      5-min Rain = 0
KLO1 141941Z 06014KT 34/19 A3009 RMK A01 T03350186  RH  041%=      5-min Rain = 0
KLO1 141942Z 06010KT 34/18 A3009 RMK A01 T03350184  RH  041%=      5-min Rain = 0
KLO1 141943Z 05012KT 34/19 A3009 RMK A01 T03380186  RH  041%=      5-min Rain = 0
KLO1 141944Z 05010KT 34/18 A3009 RMK A01 T03390183  RH  040%=      5-min Rain = 0
KLO1 141945Z 05009KT 34/18 A3009 RMK A01 T03370183  RH  040%=      5-min Rain = 0
KLO1 141946Z 07009KT 34/18 A3009 RMK A01 T03380182  RH  040%=      5-min Rain = 0
KLO1 141947Z 06012G18KT 34/18 A3009 RMK A01 T03390183  RH  040%=      5-min Rain = 0
KLO1 141948Z 04014KT 34/18 A3009 RMK A01 T03400184  RH  040%=      5-min Rain = 0
KLO1 141949Z 06010KT 34/19 A3009 RMK A01 T03410185  RH  040%=      5-min Rain = 0
KLO1 141950Z 06011KT 34/19 A3009 RMK A01 T03410185  RH  040%=      5-min Rain = 0
KLO1 141951Z 07011KT 34/18 A3009 RMK A01 T03380184  RH  040%=      5-min Rain = 0
KLO1 141952Z 05012KT 34/19 A3009 RMK A01 T03360185  RH  041%=      5-min Rain = 0
KLO1 141953Z 03011KT 34/18 A3009 RMK A01 T03370184  RH  041%=      5-min Rain = 0
KLO1 141954Z 05010KT 34/19 A3009 RMK A01 T03390185  RH  040%=      5-min Rain = 0
KLO1 141955Z 03010G15KT 34/19 A3008 RMK A01 T03380185  RH  040%=      5-min Rain = 0
KLO1 141956Z 04014KT 34/18 A3009 RMK A01 T03370182  RH  040%=      5-min Rain = 0
KLO1 141957Z 04011KT 34/18 A3008 RMK A01 T03400181  RH  039%=      5-min Rain = 0
KLO1 141958Z 04012KT 34/18 A3008 RMK A01 T03430178  RH  038%=      5-min Rain = 0
KLO1 141959Z 03012KT 34/18 A3008 RMK A01 T03420180  RH  038%=      5-min Rain = 0
KLO1 142000Z 05010KT 34/18 A3008 RMK A01 T03440179  RH  038%=      5-min Rain = 0
KLO1 142001Z 05013KT 34/18 A3008 RMK A01 T03440181  RH  038%=      5-min Rain = 0
KLO1 142002Z 04013G18KT 35/18 A3008 RMK A01 T03450183  RH  038%=      5-min Rain = 0
KLO1 142003Z 07013KT 35/19 A3008 RMK A01 T03450185  RH  039%=      5-min Rain = 0
KLO1 142004Z 06013KT 34/18 A3008 RMK A01 T03410182  RH  039%=      5-min Rain = 0
KLO1 142005Z 07009KT 34/18 A3008 RMK A01 T03400183  RH  039%=      5-min Rain = 0
KLO1 142006Z 07010KT 34/18 A3008 RMK A01 T03420183  RH  039%=      5-min Rain = 0
KLO1 142007Z 06014KT 34/18 A3008 RMK A01 T03420184  RH  039%=      5-min Rain = 0
KLO1 142008Z 04015KT 34/18 A3008 RMK A01 T03440183  RH  039%=      5-min Rain = 0
KLO1 142009Z 04014KT 35/18 A3008 RMK A01 T03450183  RH  038%=      5-min Rain = 0
KLO1 142010Z 02016KT 35/18 A3008 RMK A01 T03470183  RH  038%=      5-min Rain = 0
KLO1 142011Z 02015KT 35/18 A3008 RMK A01 T03460183  RH  038%=      5-min Rain = 0
KLO1 142012Z 02014KT 34/18 A3008 RMK A01 T03420183  RH  039%=      5-min Rain = 0
KLO1 142013Z 02012KT 34/18 A3008 RMK A01 T03410183  RH  039%=      5-min Rain = 0
KLO1 142014Z 05009KT 34/18 A3008 RMK A01 T03410183  RH  039%=      5-min Rain = 0
KLO1 142015Z 05009KT 34/18 A3007 RMK A01 T03420184  RH  039%=      5-min Rain = 0
KLO1 142016Z 06012KT 34/19 A3007 RMK A01 T03430185  RH  039%=      5-min Rain = 0
KLO1 142017Z 06011G16KT 35/19 A3007 RMK A01 T03450185  RH  039%=      5-min Rain = 0
KLO1 142018Z 07013KT 35/18 A3007 RMK A01 T03460183  RH  038%=      5-min Rain = 0
KLO1 142019Z 06011KT 34/18 A3007 RMK A01 T03440183  RH  039%=      5-min Rain = 0
KLO1 142020Z 06010KT 34/18 A3007 RMK A01 T03440183  RH  039%=      5-min Rain = 0
KLO1 142021Z 07007KT 34/18 A3007 RMK A01 T03430182  RH  039%=      5-min Rain = 0
KLO1 142022Z 07008KT 34/18 A3007 RMK A01 T03420183  RH  039%=      5-min Rain = 0
KLO1 142023Z 06010KT 34/18 A3007 RMK A01 T03440184  RH  039%=      5-min Rain = 0
KLO1 142024Z 07011KT 35/19 A3007 RMK A01 T03500185  RH  038%=      5-min Rain = 0
KLO1 142025Z 07011KT 35/18 A3007 RMK A01 T03520184  RH  037%=      5-min Rain = 0
KLO1 142026Z 08013KT 35/18 A3007 RMK A01 T03460181  RH  038%=      5-min Rain = 0
KLO1 142027Z 07013KT 34/18 A3007 RMK A01 T03420181  RH  039%=      5-min Rain = 0
KLO1 142028Z 06012KT 34/18 A3007 RMK A01 T03410181  RH  039%=      5-min Rain = 0
KLO1 142029Z 07011KT 34/18 A3007 RMK A01 T03410181  RH  039%=      5-min Rain = 0
KLO1 142030Z 07009KT 34/18 A3007 RMK A01 T03410180  RH  039%=      5-min Rain = 0
KLO1 142031Z 05011KT 34/18 A3007 RMK A01 T03390181  RH  039%=      5-min Rain = 0
KLO1 142032Z 04011KT 34/18 A3007 RMK A01 T03400181  RH  039%=      5-min Rain = 0
KLO1 142033Z 04008KT 34/18 A3006 RMK A01 T03410182  RH  039%=      5-min Rain = 0
KLO1 142034Z 02011KT 34/18 A3006 RMK A01 T03420184  RH  039%=      5-min Rain = 0
KLO1 142035Z 02009KT 35/18 A3006 RMK A01 T03460183  RH  038%=      5-min Rain = 0
KLO1 142036Z 02007KT 34/18 A3006 RMK A01 T03440183  RH  039%=      5-min Rain = 0
KLO1 142037Z 04015KT 34/18 A3006 RMK A01 T03440182  RH  038%=      5-min Rain = 0
KLO1 142038Z 05010KT 35/18 A3006 RMK A01 T03460181  RH  038%=      5-min Rain = 0
KLO1 142039Z 05009KT 35/18 A3006 RMK A01 T03460182  RH  038%=      5-min Rain = 0
KLO1 142040Z 08008KT 35/18 A3006 RMK A01 T03460182  RH  038%=      5-min Rain = 0
KLO1 142041Z 07007KT 34/18 A3006 RMK A01 T03440180  RH  038%=      5-min Rain = 0
KLO1 142042Z 05012KT 34/18 A3006 RMK A01 T03420179  RH  038%=      5-min Rain = 0
KLO1 142043Z 05012KT 34/18 A3006 RMK A01 T03430176  RH  037%=      5-min Rain = 0
KLO1 142044Z 05008KT 35/18 A3006 RMK A01 T03450177  RH  037%=      5-min Rain = 0
KLO1 142045Z 05012KT 35/18 A3006 RMK A01 T03480179  RH  037%=      5-min Rain = 0
KLO1 142046Z 05008KT 35/18 A3006 RMK A01 T03470178  RH  037%=      5-min Rain = 0
KLO1 142047Z 05009KT 35/18 A3006 RMK A01 T03450179  RH  038%=      5-min Rain = 0
KLO1 142048Z 08012KT 35/18 A3006 RMK A01 T03470181  RH  037%=      5-min Rain = 0
KLO1 142049Z 07008KT 35/18 A3006 RMK A01 T03460182  RH  038%=      5-min Rain = 0
KLO1 142050Z 06007KT 35/18 A3006 RMK A01 T03480184  RH  038%=      5-min Rain = 0
KLO1 142051Z 05008KT 35/18 A3006 RMK A01 T03520184  RH  037%=      5-min Rain = 0
KLO1 142052Z 07008KT 35/18 A3006 RMK A01 T03520183  RH  037%=      5-min Rain = 0
KLO1 142053Z 07008KT 35/18 A3006 RMK A01 T03520183  RH  037%=      5-min Rain = 0
KLO1 142054Z 07006KT 35/18 A3006 RMK A01 T03510181  RH  037%=      5-min Rain = 0
KLO1 142055Z 05009KT 35/18 A3006 RMK A01 T03510181  RH  037%=      5-min Rain = 0
KLO1 142056Z 06008G13KT 35/18 A3006 RMK A01 T03520178  RH  036%=      5-min Rain = 0
KLO1 142057Z 04007KT 35/18 A3006 RMK A01 T03530177  RH  035%=      5-min Rain = 0
KLO1 142058Z 08013KT 35/18 A3006 RMK A01 T03540180  RH  036%=      5-min Rain = 0
KLO1 142059Z 09012KT 36/18 A3006 RMK A01 T03550181  RH  036%=      5-min Rain = 0
KLO1 142100Z 09008KT 35/18 A3006 RMK A01 T03510179  RH  036%=      5-min Rain = 0
KLO1 142101Z 08006KT 35/18 A3006 RMK A01 T03490182  RH  037%=      5-min Rain = 0
KLO1 142102Z 04008KT 35/18 A3006 RMK A01 T03540182  RH  036%=      5-min Rain = 0
KLO1 142103Z 05011KT 36/18 A3006 RMK A01 T03570178  RH  035%=      5-min Rain = 0
KLO1 142104Z 05010KT 36/17 A3006 RMK A01 T03570173  RH  034%=      5-min Rain = 0
KLO1 142105Z 04011KT 36/17 A3006 RMK A01 T03560173  RH  034%=      5-min Rain = 0
KLO1 142106Z 03009KT 36/17 A3006 RMK A01 T03550174  RH  034%=      5-min Rain = 0
KLO1 142107Z 04013KT 36/18 A3006 RMK A01 T03580177  RH  034%=      5-min Rain = 0
KLO1 142108Z 03011KT 36/18 A3006 RMK A01 T03570177  RH  034%=      5-min Rain = 0
KLO1 142109Z 04009KT 35/18 A3006 RMK A01 T03540177  RH  035%=      5-min Rain = 0
KLO1 142110Z 04013KT 35/18 A3006 RMK A01 T03540176  RH  035%=      5-min Rain = 0
KLO1 142111Z 04012KT 35/18 A3006 RMK A01 T03540175  RH  035%=      5-min Rain = 0
KLO1 142112Z 06009KT 35/17 A3006 RMK A01 T03510174  RH  035%=      5-min Rain = 0
KLO1 142113Z 04008KT 35/18 A3006 RMK A01 T03480176  RH  036%=      5-min Rain = 0
KLO1 142114Z 04008KT 35/18 A3006 RMK A01 T03510175  RH  035%=      5-min Rain = 0
KLO1 142115Z 05009G14KT 35/18 A3006 RMK A01 T03520175  RH  035%=      5-min Rain = 0
KLO1 142116Z 06013KT 35/17 A3006 RMK A01 T03510171  RH  034%=      5-min Rain = 0
KLO1 142117Z 05013KT 35/17 A3006 RMK A01 T03520169  RH  034%=      5-min Rain = 0
KLO1 142118Z 05014KT 35/17 A3006 RMK A01 T03530168  RH  033%=      5-min Rain = 0
KLO1 142119Z 06010KT 35/16 A3006 RMK A01 T03520164  RH  033%=      5-min Rain = 0
KLO1 142120Z 06006KT 35/16 A3006 RMK A01 T03500164  RH  033%=      5-min Rain = 0
KLO1 142121Z 02009KT 35/17 A3006 RMK A01 T03500166  RH  034%=      5-min Rain = 0
KLO1 142122Z 03008KT 35/17 A3006 RMK A01 T03520165  RH  033%=      5-min Rain = 0
KLO1 142123Z 03008KT 36/17 A3006 RMK A01 T03550168  RH  033%=      5-min Rain = 0
KLO1 142124Z 04008KT 36/17 A3005 RMK A01 T03580170  RH  033%=      5-min Rain = 0
KLO1 142125Z 04010G16KT 36/17 A3005 RMK A01 T03570169  RH  033%=      5-min Rain = 0
KLO1 142126Z 04012KT 36/16 A3006 RMK A01 T03570161  RH  031%=      5-min Rain = 0
KLO1 142127Z 04010KT 36/16 A3005 RMK A01 T03560160  RH  031%=      5-min Rain = 0
KLO1 142128Z 05010G15KT 36/16 A3005 RMK A01 T03560162  RH  032%=      5-min Rain = 0
KLO1 142129Z 04009KT 36/16 A3005 RMK A01 T03560160  RH  031%=      5-min Rain = 0
KLO1 142130Z 02011KT 36/16 A3005 RMK A01 T03580162  RH  031%=      5-min Rain = 0
KLO1 142131Z 03012KT 36/16 A3005 RMK A01 T03610164  RH  031%=      5-min Rain = 0
KLO1 142132Z 04011KT 36/16 A3006 RMK A01 T03640163  RH  031%=      5-min Rain = 0
KLO1 142133Z 03007KT 36/16 A3005 RMK A01 T03610162  RH  031%=      5-min Rain = 0
KLO1 142134Z 02007KT 36/16 A3005 RMK A01 T03580162  RH  031%=      5-min Rain = 0
KLO1 142135Z 05009KT 36/16 A3005 RMK A01 T03550162  RH  032%=      5-min Rain = 0
KLO1 142136Z 05012KT 36/16 A3005 RMK A01 T03560159  RH  031%=      5-min Rain = 0
KLO1 142137Z 05010KT 36/16 A3005 RMK A01 T03590158  RH  030%=      5-min Rain = 0
KLO1 142138Z 05008KT 36/16 A3005 RMK A01 T03590160  RH  031%=      5-min Rain = 0
KLO1 142139Z 05006KT 36/16 A3005 RMK A01 T03590159  RH  031%=      5-min Rain = 0
KLO1 142140Z 02007KT 36/16 A3005 RMK A01 T03570160  RH  031%=      5-min Rain = 0
KLO1 142141Z 03010G18KT 36/16 A3005 RMK A01 T03570161  RH  031%=      5-min Rain = 0
KLO1 142142Z 05012KT 36/16 A3005 RMK A01 T03600164  RH  031%=      5-min Rain = 0
KLO1 142143Z 04010KT 36/16 A3005 RMK A01 T03610164  RH  031%=      5-min Rain = 0
KLO1 142144Z 05011KT 36/17 A3005 RMK A01 T03600166  RH  032%=      5-min Rain = 0
KLO1 142145Z 05010KT 36/17 A3005 RMK A01 T03600166  RH  032%=      5-min Rain = 0
KLO1 142146Z 03007KT 36/16 A3005 RMK A01 T03600164  RH  031%=      5-min Rain = 0
KLO1 142147Z 06008KT 36/17 A3005 RMK A01 T03590165  RH  032%=      5-min Rain = 0
KLO1 142148Z 06010KT 36/17 A3005 RMK A01 T03590166  RH  032%=      5-min Rain = 0
KLO1 142149Z 05010KT 36/17 A3005 RMK A01 T03570167  RH  032%=      5-min Rain = 0
KLO1 142150Z 05009KT 36/17 A3005 RMK A01 T03570165  RH  032%=      5-min Rain = 0
KLO1 142151Z 06003KT 36/16 A3005 RMK A01 T03570164  RH  032%=      5-min Rain = 0
KLO1 142152Z 06004KT 36/16 A3004 RMK A01 T03550164  RH  032%=      5-min Rain = 0
KLO1 142153Z 07005G10KT 36/17 A3004 RMK A01 T03550165  RH  033%=      5-min Rain = 0
KLO1 142154Z 07009KT 36/17 A3005 RMK A01 T03570167  RH  032%=      5-min Rain = 0
KLO1 142155Z 08011KT 36/17 A3004 RMK A01 T03620167  RH  032%=      5-min Rain = 0
KLO1 142156Z 08010KT 36/17 A3004 RMK A01 T03630165  RH  031%=      5-min Rain = 0
KLO1 142157Z 07009KT 36/17 A3004 RMK A01 T03620166  RH  031%=      5-min Rain = 0
KLO1 142158Z 08010G15KT 37/17 A3004 RMK A01 T03650167  RH  031%=      5-min Rain = 0
KLO1 142159Z 08008KT 37/16 A3004 RMK A01 T03650164  RH  030%=      5-min Rain = 0
KLO1 142200Z 10008KT 36/16 A3004 RMK A01 T03600161  RH  031%=      5-min Rain = 0
KLO1 142201Z 09008KT 36/16 A3004 RMK A01 T03580163  RH  032%=      5-min Rain = 0
KLO1 142202Z 06007KT 36/16 A3004 RMK A01 T03580163  RH  032%=      5-min Rain = 0
KLO1 142203Z 06010KT 36/16 A3004 RMK A01 T03600163  RH  031%=      5-min Rain = 0
KLO1 142204Z 05009KT 36/16 A3004 RMK A01 T03580159  RH  031%=      5-min Rain = 0
KLO1 142205Z 06008KT 36/16 A3004 RMK A01 T03580157  RH  030%=      5-min Rain = 0
KLO1 142206Z 05005KT 36/16 A3004 RMK A01 T03570157  RH  030%=      5-min Rain = 0
KLO1 142207Z 04004KT 36/16 A3004 RMK A01 T03560156  RH  030%=      5-min Rain = 0
KLO1 142208Z 06003KT 36/16 A3004 RMK A01 T03560158  RH  031%=      5-min Rain = 0
KLO1 142209Z 06003KT 36/16 A3004 RMK A01 T03580159  RH  031%=      5-min Rain = 0
KLO1 142210Z 06007KT 36/16 A3004 RMK A01 T03580160  RH  031%=      5-min Rain = 0
KLO1 142211Z 09009KT 36/16 A3004 RMK A01 T03600163  RH  031%=      5-min Rain = 0
KLO1 142212Z 10009KT 36/16 A3004 RMK A01 T03610163  RH  031%=      5-min Rain = 0
KLO1 142213Z 08006KT 36/16 A3004 RMK A01 T03590162  RH  031%=      5-min Rain = 0
KLO1 142214Z 07004KT 36/16 A3004 RMK A01 T03570162  RH  031%=      5-min Rain = 0
KLO1 142215Z 07005KT 36/16 A3004 RMK A01 T03560163  RH  032%=      5-min Rain = 0
KLO1 142216Z 06008G14KT 36/16 A3004 RMK A01 T03570164  RH  032%=      5-min Rain = 0
KLO1 142217Z 05010KT 36/16 A3004 RMK A01 T03600161  RH  031%=      5-min Rain = 0
KLO1 142218Z 05008KT 36/16 A3004 RMK A01 T03600161  RH  031%=      5-min Rain = 0
KLO1 142219Z 06011KT 36/16 A3004 RMK A01 T03620159  RH  030%=      5-min Rain = 0
KLO1 142220Z 06009KT 36/16 A3004 RMK A01 T03600158  RH  030%=      5-min Rain = 0
KLO1 142221Z 07008KT 36/16 A3004 RMK A01 T03590158  RH  030%=      5-min Rain = 0
KLO1 142222Z 06008KT 36/16 A3004 RMK A01 T03580157  RH  030%=      5-min Rain = 0
KLO1 142223Z 07009KT 36/16 A3004 RMK A01 T03570157  RH  031%=      5-min Rain = 0
KLO1 142224Z 07011KT 36/16 A3004 RMK A01 T03570158  RH  031%=      5-min Rain = 0
KLO1 142225Z 04010KT 36/16 A3004 RMK A01 T03590158  RH  030%=      5-min Rain = 0
KLO1 142226Z 03011KT 36/16 A3004 RMK A01 T03630157  RH  029%=      5-min Rain = 0
KLO1 142227Z 04012KT 37/16 A3004 RMK A01 T03650156  RH  029%=      5-min Rain = 0
KLO1 142228Z 05011KT 37/16 A3004 RMK A01 T03650157  RH  029%=      5-min Rain = 0
KLO1 142229Z 06009KT 36/16 A3004 RMK A01 T03630156  RH  029%=      5-min Rain = 0
KLO1 142230Z 04009KT 36/16 A3004 RMK A01 T03620156  RH  029%=      5-min Rain = 0
KLO1 142231Z 04008KT 36/16 A3004 RMK A01 T03620155  RH  029%=      5-min Rain = 0
KLO1 142232Z 03010KT 36/15 A3004 RMK A01 T03610153  RH  029%=      5-min Rain = 0
KLO1 142233Z 03008KT 36/15 A3004 RMK A01 T03630152  RH  029%=      5-min Rain = 0
KLO1 142234Z 03009KT 37/15 A3004 RMK A01 T03650154  RH  029%=      5-min Rain = 0
KLO1 142235Z 02011KT 37/15 A3004 RMK A01 T03670153  RH  028%=      5-min Rain = 0
KLO1 142236Z 03014KT 36/15 A3004 RMK A01 T03640153  RH  029%=      5-min Rain = 0
KLO1 142237Z 03012KT 36/15 A3004 RMK A01 T03630152  RH  029%=      5-min Rain = 0
KLO1 142238Z 01011KT 36/15 A3004 RMK A01 T03600152  RH  029%=      5-min Rain = 0
KLO1 142239Z 00009KT 36/15 A3003 RMK A01 T03580152  RH  029%=      5-min Rain = 0
KLO1 142240Z 01008KT 36/15 A3003 RMK A01 T03570152  RH  030%=      5-min Rain = 0
KLO1 142241Z 03008KT 36/15 A3003 RMK A01 T03610151  RH  029%=      5-min Rain = 0
KLO1 142242Z 04006KT 36/15 A3003 RMK A01 T03610150  RH  028%=      5-min Rain = 0
KLO1 142243Z 03007KT 36/15 A3003 RMK A01 T03600151  RH  029%=      5-min Rain = 0
KLO1 142244Z 07007KT 36/15 A3003 RMK A01 T03610152  RH  029%=      5-min Rain = 0
KLO1 142245Z 07011KT 36/15 A3004 RMK A01 T03620154  RH  029%=      5-min Rain = 0
KLO1 142246Z 06008KT 36/15 A3003 RMK A01 T03600153  RH  029%=      5-min Rain = 0
KLO1 142247Z 06011KT 36/15 A3004 RMK A01 T03580152  RH  029%=      5-min Rain = 0
KLO1 142248Z 05008KT 36/15 A3004 RMK A01 T03570151  RH  029%=      5-min Rain = 0
KLO1 142249Z 06005KT 36/15 A3003 RMK A01 T03570153  RH  030%=      5-min Rain = 0
KLO1 142250Z 06004KT 36/15 A3003 RMK A01 T03580153  RH  030%=      5-min Rain = 0
KLO1 142251Z 05007KT 36/15 A3003 RMK A01 T03600152  RH  029%=      5-min Rain = 0
KLO1 142252Z 06009KT 36/15 A3003 RMK A01 T03620153  RH  029%=      5-min Rain = 0
KLO1 142253Z 05007KT 36/15 A3003 RMK A01 T03610153  RH  029%=      5-min Rain = 0
KLO1 142254Z 06009KT 36/16 A3003 RMK A01 T03600155  RH  030%=      5-min Rain = 0
KLO1 142255Z 06008KT 36/15 A3003 RMK A01 T03600154  RH  029%=      5-min Rain = 0
KLO1 142256Z 05006KT 36/15 A3003 RMK A01 T03600153  RH  029%=      5-min Rain = 0
KLO1 142257Z 03010KT 36/15 A3003 RMK A01 T03600153  RH  029%=      5-min Rain = 0
KLO1 142258Z 03008KT 36/15 A3003 RMK A01 T03610153  RH  029%=      5-min Rain = 0
KLO1 142259Z 02010KT 36/15 A3003 RMK A01 T03630153  RH  029%=      5-min Rain = 0
KLO1 142300Z 04010KT 36/15 A3003 RMK A01 T03630153  RH  029%=      5-min Rain = 0
KLO1 142301Z 04011KT 37/15 A3003 RMK A01 T03660152  RH  028%=      5-min Rain = 0
KLO1 142302Z 04011KT 37/15 A3003 RMK A01 T03660152  RH  028%=      5-min Rain = 0
KLO1 142303Z 04012KT 36/15 A3003 RMK A01 T03640152  RH  028%=      5-min Rain = 0
KLO1 142304Z 03010KT 36/15 A3003 RMK A01 T03620151  RH  029%=      5-min Rain = 0
KLO1 142305Z 02008KT 36/15 A3003 RMK A01 T03610150  RH  029%=      5-min Rain = 0
KLO1 142306Z 02009KT 36/15 A3003 RMK A01 T03610152  RH  029%=      5-min Rain = 0
KLO1 142307Z 04009KT 36/15 A3003 RMK A01 T03620152  RH  029%=      5-min Rain = 0
KLO1 142308Z 04011KT 36/15 A3003 RMK A01 T03630150  RH  028%=      5-min Rain = 0
KLO1 142309Z 05009KT 36/15 A3003 RMK A01 T03630149  RH  028%=      5-min Rain = 0
KLO1 142310Z 03009KT 36/15 A3003 RMK A01 T03630148  RH  028%=      5-min Rain = 0
KLO1 142311Z 03009KT 36/15 A3003 RMK A01 T03630147  RH  028%=      5-min Rain = 0
KLO1 142312Z 03009KT 36/15 A3003 RMK A01 T03600147  RH  028%=      5-min Rain = 0
KLO1 142313Z 02009KT 36/15 A3003 RMK A01 T03590148  RH  028%=      5-min Rain = 0
KLO1 142314Z 03012KT 36/15 A3003 RMK A01 T03600148  RH  028%=      5-min Rain = 0
KLO1 142315Z 03012KT 36/15 A3003 RMK A01 T03620148  RH  028%=      5-min Rain = 0
KLO1 142316Z 04010KT 36/15 A3003 RMK A01 T03630148  RH  028%=      5-min Rain = 0
KLO1 142317Z 05007KT 36/15 A3003 RMK A01 T03610148  RH  028%=      5-min Rain = 0
KLO1 142318Z 06007KT 36/15 A3003 RMK A01 T03600149  RH  029%=      5-min Rain = 0
KLO1 142319Z 04008KT 36/15 A3003 RMK A01 T03610149  RH  028%=      5-min Rain = 0
KLO1 142320Z 05010KT 36/15 A3003 RMK A01 T03620146  RH  028%=      5-min Rain = 0
KLO1 142321Z 03008KT 36/15 A3003 RMK A01 T03630148  RH  028%=      5-min Rain = 0
KLO1 142322Z 03009KT 36/15 A3003 RMK A01 T03630145  RH  027%=      5-min Rain = 0
KLO1 142323Z 03008KT 36/15 A3003 RMK A01 T03630145  RH  027%=      5-min Rain = 0
KLO1 142324Z 03008G15KT 36/15 A3002 RMK A01 T03620145  RH  027%=      5-min Rain = 0
KLO1 142325Z 05012KT 36/15 A3002 RMK A01 T03610146  RH  028%=      5-min Rain = 0
KLO1 142326Z 04012KT 36/15 A3002 RMK A01 T03610146  RH  028%=      5-min Rain = 0
KLO1 142327Z 04010KT 36/15 A3002 RMK A01 T03590146  RH  028%=      5-min Rain = 0
KLO1 142328Z 04009KT 36/15 A3002 RMK A01 T03590147  RH  028%=      5-min Rain = 0
KLO1 142329Z 06011KT 36/15 A3002 RMK A01 T03580148  RH  029%=      5-min Rain = 0
KLO1 142330Z 06008KT 36/15 A3002 RMK A01 T03560150  RH  029%=      5-min Rain = 0
KLO1 142331Z 04009KT 36/15 A3002 RMK A01 T03550150  RH  029%=      5-min Rain = 0
KLO1 142332Z 03011KT 36/15 A3002 RMK A01 T03570147  RH  029%=      5-min Rain = 0
KLO1 142333Z 03010KT 36/15 A3002 RMK A01 T03590148  RH  028%=      5-min Rain = 0
KLO1 142334Z 03013KT 36/15 A3002 RMK A01 T03590147  RH  028%=      5-min Rain = 0
KLO1 142335Z 03011KT 36/15 A3002 RMK A01 T03590147  RH  028%=      5-min Rain = 0
KLO1 142336Z 03010KT 36/15 A3002 RMK A01 T03590146  RH  028%=      5-min Rain = 0
KLO1 142337Z 04007KT 36/15 A3002 RMK A01 T03590145  RH  028%=      5-min Rain = 0
KLO1 142338Z 03009KT 36/15 A3002 RMK A01 T03570145  RH  028%=      5-min Rain = 0
KLO1 142339Z 03008KT 36/14 A3002 RMK A01 T03560143  RH  028%=      5-min Rain = 0
KLO1 142340Z 02009KT 36/14 A3002 RMK A01 T03570143  RH  028%=      5-min Rain = 0
KLO1 142341Z 02008KT 36/14 A3002 RMK A01 T03580142  RH  028%=      5-min Rain = 0
KLO1 142342Z 04008KT 36/14 A3002 RMK A01 T03580143  RH  028%=      5-min Rain = 0
KLO1 142343Z 04008KT 36/14 A3002 RMK A01 T03580142  RH  027%=      5-min Rain = 0
KLO1 142344Z 04007KT 36/14 A3002 RMK A01 T03580142  RH  028%=      5-min Rain = 0
KLO1 142345Z 04010KT 36/14 A3002 RMK A01 T03570143  RH  028%=      5-min Rain = 0
KLO1 142346Z 04012KT 36/15 A3002 RMK A01 T03570145  RH  028%=      5-min Rain = 0
KLO1 142347Z 05011KT 36/15 A3002 RMK A01 T03580148  RH  029%=      5-min Rain = 0
KLO1 142348Z 05009KT 36/15 A3002 RMK A01 T03570148  RH  029%=      5-min Rain = 0
KLO1 142349Z 05010KT 36/15 A3002 RMK A01 T03560149  RH  029%=      5-min Rain = 0
KLO1 142350Z 06011KT 36/15 A3002 RMK A01 T03570148  RH  029%=      5-min Rain = 0
KLO1 142351Z 05010KT 36/15 A3002 RMK A01 T03560148  RH  029%=      5-min Rain = 0
KLO1 142352Z 05009KT 36/15 A3002 RMK A01 T03560146  RH  029%=      5-min Rain = 0
KLO1 142353Z 06007KT 36/15 A3002 RMK A01 T03560147  RH  029%=      5-min Rain = 0
KLO1 142354Z 06009KT 36/15 A3002 RMK A01 T03560148  RH  029%=      5-min Rain = 0
KLO1 142355Z 04011KT 36/15 A3002 RMK A01 T03560152  RH  030%=      5-min Rain = 0
KLO1 142356Z 04012KT 36/15 A3002 RMK A01 T03570150  RH  029%=      5-min Rain = 0
KLO1 142357Z 04010KT 36/15 A3002 RMK A01 T03570149  RH  029%=      5-min Rain = 0
KLO1 142358Z 04009KT 36/15 A3002 RMK A01 T03570150  RH  029%=      5-min Rain = 0
KLO1 142359Z 04006KT 36/15 A3001 RMK A01 T03560148  RH  029%=      5-min Rain = 0
KLO1 150000Z 04007KT 36/15 A3001 RMK A01 T03550147  RH  029%=      5-min Rain = 0
KLO1 150001Z 04009KT 36/15 A3002 RMK A01 T03560151  RH  029%=      5-min Rain = 0
KLO1 150002Z 02009KT 36/15 A3001 RMK A01 T03570152  RH  030%=      5-min Rain = 0
KLO1 150003Z 02009KT 36/15 A3001 RMK A01 T03570151  RH  029%=      5-min Rain = 0
KLO1 150004Z 02010KT 36/15 A3001 RMK A01 T03570150  RH  029%=      5-min Rain = 0
KLO1 150005Z 02010KT 36/15 A3001 RMK A01 T03560150  RH  029%=      5-min Rain = 0
KLO1 150006Z 03011KT 35/15 A3002 RMK A01 T03540150  RH  030%=      5-min Rain = 0
KLO1 150007Z 05010KT 36/15 A3002 RMK A01 T03550150  RH  030%=      5-min Rain = 0
KLO1 150008Z 06010KT 36/15 A3002 RMK A01 T03550147  RH  029%=      5-min Rain = 0
KLO1 150009Z 06009KT 36/15 A3002 RMK A01 T03550146  RH  029%=      5-min Rain = 0
KLO1 150010Z 05010KT 35/14 A3002 RMK A01 T03540144  RH  029%=      5-min Rain = 0
KLO1 150011Z 05008KT 35/15 A3001 RMK A01 T03530145  RH  029%=      5-min Rain = 0
KLO1 150012Z 05008KT 35/15 A3001 RMK A01 T03530146  RH  029%=      5-min Rain = 0
KLO1 150013Z 04009KT 35/15 A3001 RMK A01 T03530145  RH  029%=      5-min Rain = 0
KLO1 150014Z 05010KT 35/15 A3001 RMK A01 T03530145  RH  029%=      5-min Rain = 0
KLO1 150015Z 04009KT 35/15 A3001 RMK A01 T03530146  RH  029%=      5-min Rain = 0
KLO1 150016Z 04011KT 35/15 A3001 RMK A01 T03530146  RH  029%=      5-min Rain = 0
KLO1 150017Z 04011KT 35/15 A3001 RMK A01 T03520145  RH  029%=      5-min Rain = 0
KLO1 150018Z 04009KT 35/15 A3001 RMK A01 T03510146  RH  029%=      5-min Rain = 0
KLO1 150019Z 04010KT 35/15 A3001 RMK A01 T03510146  RH  029%=      5-min Rain = 0
KLO1 150020Z 04010KT 35/15 A3001 RMK A01 T03510145  RH  029%=      5-min Rain = 0
KLO1 150021Z 04010KT 35/15 A3001 RMK A01 T03500145  RH  029%=      5-min Rain = 0
KLO1 150022Z 04010KT 35/15 A3001 RMK A01 T03500146  RH  029%=      5-min Rain = 0
KLO1 150023Z 04008KT 35/15 A3001 RMK A01 T03500146  RH  029%=      5-min Rain = 0
KLO1 150024Z 06007KT 35/15 A3001 RMK A01 T03500146  RH  029%=      5-min Rain = 0
KLO1 150025Z 06006KT 35/15 A3001 RMK A01 T03500146  RH  029%=      5-min Rain = 0
KLO1 150026Z 05006KT 35/15 A3001 RMK A01 T03490146  RH  030%=      5-min Rain = 0
KLO1 150027Z 06007KT 35/15 A3001 RMK A01 T03500147  RH  030%=      5-min Rain = 0
KLO1 150028Z 06008KT 35/14 A3001 RMK A01 T03490144  RH  029%=      5-min Rain = 0
KLO1 150029Z 07006KT 35/14 A3001 RMK A01 T03490143  RH  029%=      5-min Rain = 0
KLO1 150030Z 06005KT 35/14 A3001 RMK A01 T03480143  RH  029%=      5-min Rain = 0
KLO1 150031Z 06005KT 35/14 A3001 RMK A01 T03480143  RH  029%=      5-min Rain = 0
KLO1 150032Z 05007KT 35/14 A3001 RMK A01 T03470144  RH  030%=      5-min Rain = 0
KLO1 150033Z 05007KT 35/14 A3001 RMK A01 T03470144  RH  030%=      5-min Rain = 0
KLO1 150034Z 05007KT 35/14 A3001 RMK A01 T03470143  RH  029%=      5-min Rain = 0
KLO1 150035Z 04009KT 35/14 A3001 RMK A01 T03470143  RH  029%=      5-min Rain = 0
KLO1 150036Z 04009KT 35/14 A3001 RMK A01 T03470142  RH  029%=      5-min Rain = 0
KLO1 150037Z 05008KT 35/14 A3001 RMK A01 T03470143  RH  029%=      5-min Rain = 0
KLO1 150038Z 05007KT 35/15 A3001 RMK A01 T03470145  RH  030%=      5-min Rain = 0
KLO1 150039Z 06008KT 35/15 A3001 RMK A01 T03470146  RH  030%=      5-min Rain = 0
KLO1 150040Z 05008KT 35/15 A3001 RMK A01 T03460147  RH  030%=      5-min Rain = 0
KLO1 150041Z 06008KT 35/15 A3001 RMK A01 T03450147  RH  031%=      5-min Rain = 0
KLO1 150042Z 06008KT 35/15 A3001 RMK A01 T03450148  RH  031%=      5-min Rain = 0
KLO1 150043Z 05007KT 35/15 A3002 RMK A01 T03450148  RH  031%=      5-min Rain = 0
KLO1 150044Z 07006KT 35/15 A3002 RMK A01 T03450149  RH  031%=      5-min Rain = 0
KLO1 150045Z 06006KT 34/15 A3002 RMK A01 T03440149  RH  031%=      5-min Rain = 0
KLO1 150046Z 06008KT 35/15 A3002 RMK A01 T03450149  RH  031%=      5-min Rain = 0
KLO1 150047Z 06008KT 35/15 A3002 RMK A01 T03450148  RH  031%=      5-min Rain = 0
KLO1 150048Z 06009KT 34/15 A3002 RMK A01 T03440147  RH  031%=      5-min Rain = 0
KLO1 150049Z 06008KT 35/15 A3002 RMK A01 T03450147  RH  031%=      5-min Rain = 0
KLO1 150050Z 06008KT 34/15 A3002 RMK A01 T03440146  RH  030%=      5-min Rain = 0
KLO1 150051Z 05010KT 35/15 A3002 RMK A01 T03450145  RH  030%=      5-min Rain = 0
KLO1 150052Z 05008KT 35/14 A3002 RMK A01 T03450144  RH  030%=      5-min Rain = 0
KLO1 150053Z 05009KT 34/15 A3002 RMK A01 T03440145  RH  030%=      5-min Rain = 0
KLO1 150054Z 05008KT 34/14 A3002 RMK A01 T03440144  RH  030%=      5-min Rain = 0
KLO1 150055Z 05008KT 35/15 A3002 RMK A01 T03450145  RH  030%=      5-min Rain = 0
KLO1 150056Z 05007KT 35/15 A3002 RMK A01 T03450146  RH  030%=      5-min Rain = 0
KLO1 150057Z 05007KT 34/15 A3002 RMK A01 T03440147  RH  031%=      5-min Rain = 0
KLO1 150058Z 05008KT 34/15 A3002 RMK A01 T03440146  RH  031%=      5-min Rain = 0
KLO1 150059Z 05008KT 34/15 A3002 RMK A01 T03430145  RH  030%=      5-min Rain = 0
KLO1 150100Z 05008KT 34/15 A3002 RMK A01 T03440146  RH  031%=      5-min Rain = 0
KLO1 150101Z 05008KT 34/14 A3002 RMK A01 T03430144  RH  030%=      5-min Rain = 0
KLO1 150102Z 05008KT 34/14 A3002 RMK A01 T03420144  RH  030%=      5-min Rain = 0
KLO1 150103Z 05007KT 34/14 A3002 RMK A01 T03420144  RH  030%=      5-min Rain = 0
KLO1 150104Z 05008KT 34/14 A3003 RMK A01 T03410144  RH  031%=      5-min Rain = 0
KLO1 150105Z 05008KT 34/14 A3003 RMK A01 T03410143  RH  030%=      5-min Rain = 0
KLO1 150106Z 05007KT 34/14 A3003 RMK A01 T03410143  RH  030%=      5-min Rain = 0
KLO1 150107Z 05007KT 34/14 A3003 RMK A01 T03400142  RH  030%=      5-min Rain = 0
KLO1 150108Z 05007KT 34/14 A3003 RMK A01 T03400143  RH  030%=      5-min Rain = 0
KLO1 150109Z 05007KT 34/14 A3003 RMK A01 T03400143  RH  031%=      5-min Rain = 0
KLO1 150110Z 05007KT 34/14 A3003 RMK A01 T03390143  RH  031%=      5-min Rain = 0
KLO1 150111Z 05008KT 34/14 A3003 RMK A01 T03390143  RH  031%=      5-min Rain = 0
KLO1 150112Z 05007KT 34/14 A3003 RMK A01 T03390143  RH  031%=      5-min Rain = 0
KLO1 150113Z 05006KT 34/14 A3003 RMK A01 T03380144  RH  031%=      5-min Rain = 0
KLO1 150114Z 05007KT 34/14 A3003 RMK A01 T03380144  RH  031%=      5-min Rain = 0
KLO1 150115Z 06005KT 34/15 A3003 RMK A01 T03370145  RH  031%=      5-min Rain = 0
KLO1 150116Z 06005KT 34/15 A3004 RMK A01 T03360145  RH  032%=      5-min Rain = 0
KLO1 150117Z 06004KT 34/15 A3004 RMK A01 T03350145  RH  032%=      5-min Rain = 0
KLO1 150118Z 08003KT 34/15 A3004 RMK A01 T03350145  RH  032%=      5-min Rain = 0
KLO1 150119Z 12003KT 34/15 A3004 RMK A01 T03350146  RH  032%=      5-min Rain = 0
KLO1 150120Z 17005KT 34/15 A3004 RMK A01 T03350146  RH  032%=      5-min Rain = 0
KLO1 150121Z 18006KT 33/16 A3004 RMK A01 T03340156  RH  034%=      5-min Rain = 0
KLO1 150122Z 19005KT 33/17 A3004 RMK A01 T03300166  RH  037%=      5-min Rain = 0
KLO1 150123Z 19005KT 33/17 A3004 RMK A01 T03270171  RH  040%=      5-min Rain = 0
KLO1 150124Z 19006KT 32/17 A3004 RMK A01 T03230174  RH  041%=      5-min Rain = 0
KLO1 150125Z 18007KT 32/18 A3004 RMK A01 T03210175  RH  042%=      5-min Rain = 0
KLO1 150126Z 19007KT 32/18 A3004 RMK A01 T03190177  RH  043%=      5-min Rain = 0
KLO1 150127Z 18009KT 32/18 A3004 RMK A01 T03180177  RH  043%=      5-min Rain = 0
KLO1 150128Z 18010KT 32/18 A3005 RMK A01 T03170178  RH  044%=      5-min Rain = 0
KLO1 150129Z 19009KT 32/18 A3005 RMK A01 T03160178  RH  044%=      5-min Rain = 0
KLO1 150130Z 19010KT 32/18 A3005 RMK A01 T03150178  RH  044%=      5-min Rain = 0
KLO1 150131Z 20012KT 31/18 A3005 RMK A01 T03140179  RH  045%=      5-min Rain = 0
KLO1 150132Z 21012KT 31/18 A3005 RMK A01 T03140179  RH  045%=      5-min Rain = 0
KLO1 150133Z 20011KT 31/18 A3004 RMK A01 T03130179  RH  045%=      5-min Rain = 0
KLO1 150134Z 20013KT 31/18 A3004 RMK A01 T03130179  RH  045%=      5-min Rain = 0
KLO1 150135Z 20011KT 31/18 A3004 RMK A01 T03130179  RH  045%=      5-min Rain = 0
KLO1 150136Z 20012KT 31/18 A3004 RMK A01 T03120179  RH  045%=      5-min Rain = 0
KLO1 150137Z 20011KT 31/18 A3004 RMK A01 T03110179  RH  045%=      5-min Rain = 0
KLO1 150138Z 19012KT 31/18 A3004 RMK A01 T03110179  RH  045%=      5-min Rain = 0
KLO1 150139Z 19011KT 31/18 A3005 RMK A01 T03110179  RH  045%=      5-min Rain = 0
KLO1 150140Z 20009KT 31/18 A3005 RMK A01 T03100179  RH  046%=      5-min Rain = 0
KLO1 150141Z 20010KT 31/18 A3005 RMK A01 T03100179  RH  046%=      5-min Rain = 0
KLO1 150142Z 20008KT 31/18 A3005 RMK A01 T03100179  RH  046%=      5-min Rain = 0
KLO1 150143Z 20009KT 31/18 A3005 RMK A01 T03090179  RH  046%=      5-min Rain = 0
KLO1 150144Z 20009KT 31/18 A3005 RMK A01 T03090179  RH  046%=      5-min Rain = 0
KLO1 150145Z 20008KT 31/18 A3005 RMK A01 T03090179  RH  046%=      5-min Rain = 0
KLO1 150146Z 20007KT 31/18 A3005 RMK A01 T03080179  RH  046%=      5-min Rain = 0
KLO1 150147Z 19007KT 31/18 A3005 RMK A01 T03080180  RH  046%=      5-min Rain = 0
KLO1 150148Z 18008KT 31/18 A3005 RMK A01 T03080179  RH  046%=      5-min Rain = 0
KLO1 150149Z 18009KT 31/18 A3006 RMK A01 T03070179  RH  046%=      5-min Rain = 0
KLO1 150150Z 19007KT 31/18 A3006 RMK A01 T03070179  RH  046%=      5-min Rain = 0
KLO1 150151Z 20007KT 31/18 A3006 RMK A01 T03070180  RH  047%=      5-min Rain = 0
KLO1 150152Z 21008KT 31/18 A3006 RMK A01 T03060179  RH  047%=      5-min Rain = 0
KLO1 150153Z 21009KT 31/18 A3006 RMK A01 T03050179  RH  047%=      5-min Rain = 0
KLO1 150154Z 20008KT 31/18 A3006 RMK A01 T03050178  RH  047%=      5-min Rain = 0
KLO1 150155Z 21008KT 31/18 A3006 RMK A01 T03060178  RH  046%=      5-min Rain = 0
KLO1 150156Z 21007KT 31/18 A3006 RMK A01 T03060178  RH  046%=      5-min Rain = 0
KLO1 150157Z 21006KT 31/18 A3006 RMK A01 T03070178  RH  046%=      5-min Rain = 0
KLO1 150158Z 21008KT 31/18 A3006 RMK A01 T03060179  RH  047%=      5-min Rain = 0
KLO1 150159Z 21006KT 31/18 A3006 RMK A01 T03060179  RH  047%=      5-min Rain = 0
KLO1 150200Z 21006KT 31/18 A3006 RMK A01 T03050178  RH  047%=      5-min Rain = 0
KLO1 150201Z 21006KT 31/18 A3007 RMK A01 T03050178  RH  047%=      5-min Rain = 0
KLO1 150202Z 20006KT 31/18 A3007 RMK A01 T03050178  RH  047%=      5-min Rain = 0
KLO1 150203Z 21005KT 30/18 A3007 RMK A01 T03040178  RH  047%=      5-min Rain = 0
KLO1 150204Z 21005KT 30/18 A3007 RMK A01 T03040178  RH  047%=      5-min Rain = 0
KLO1 150205Z 21005KT 30/18 A3007 RMK A01 T03040178  RH  047%=      5-min Rain = 0
KLO1 150206Z 21004KT 30/18 A3007 RMK A01 T03030178  RH  047%=      5-min Rain = 0
KLO1 150207Z 21005KT 30/18 A3007 RMK A01 T03030179  RH  047%=      5-min Rain = 0
KLO1 150208Z 21005KT 30/18 A3007 RMK A01 T03020178  RH  047%=      5-min Rain = 0
KLO1 150209Z 21007KT 30/18 A3007 RMK A01 T03020178  RH  047%=      5-min Rain = 0
KLO1 150210Z 21006KT 30/18 A3007 RMK A01 T03020177  RH  047%=      5-min Rain = 0
KLO1 150211Z 22007KT 30/18 A3008 RMK A01 T03030178  RH  047%=      5-min Rain = 0
KLO1 150212Z 21007KT 30/18 A3008 RMK A01 T03030177  RH  047%=      5-min Rain = 0
KLO1 150213Z 21007KT 30/18 A3008 RMK A01 T03030177  RH  047%=      5-min Rain = 0
KLO1 150214Z 21007KT 30/18 A3008 RMK A01 T03030177  RH  047%=      5-min Rain = 0
KLO1 150215Z 22007KT 30/18 A3008 RMK A01 T03030177  RH  047%=      5-min Rain = 0
KLO1 150216Z 22007KT 30/18 A3008 RMK A01 T03030177  RH  047%=      5-min Rain = 0
KLO1 150217Z 21007KT 30/18 A3008 RMK A01 T03030177  RH  047%=      5-min Rain = 0
KLO1 150218Z 21006KT 30/18 A3008 RMK A01 T03030177  RH  047%=      5-min Rain = 0
KLO1 150219Z 21007KT 30/18 A3008 RMK A01 T03030177  RH  047%=      5-min Rain = 0
KLO1 150220Z 20007KT 30/18 A3008 RMK A01 T03020177  RH  047%=      5-min Rain = 0
KLO1 150221Z 20006KT 30/18 A3008 RMK A01 T03020177  RH  047%=      5-min Rain = 0
KLO1 150222Z 19006KT 30/18 A3008 RMK A01 T03010177  RH  047%=      5-min Rain = 0
KLO1 150223Z 19006KT 30/18 A3009 RMK A01 T03010177  RH  047%=      5-min Rain = 0
KLO1 150224Z 18006KT 30/18 A3009 RMK A01 T03000177  RH  048%=      5-min Rain = 0
KLO1 150225Z 18006KT 30/18 A3009 RMK A01 T02990178  RH  048%=      5-min Rain = 0
KLO1 150226Z 19006KT 30/18 A3009 RMK A01 T02990178  RH  048%=      5-min Rain = 0
KLO1 150227Z 19006KT 30/18 A3009 RMK A01 T02980178  RH  049%=      5-min Rain = 0
KLO1 150228Z 19006KT 30/18 A3009 RMK A01 T02980178  RH  049%=      5-min Rain = 0
KLO1 150229Z 19006KT 30/18 A3009 RMK A01 T02970178  RH  049%=      5-min Rain = 0
KLO1 150230Z 20006KT 30/18 A3009 RMK A01 T02970178  RH  049%=      5-min Rain = 0
KLO1 150231Z 20007KT 30/18 A3009 RMK A01 T02970178  RH  049%=      5-min Rain = 0
KLO1 150232Z 20007KT 30/18 A3009 RMK A01 T02970177  RH  048%=      5-min Rain = 0
KLO1 150233Z 19006KT 30/18 A3009 RMK A01 T02980177  RH  048%=      5-min Rain = 0
KLO1 150234Z 19005KT 30/18 A3009 RMK A01 T02980177  RH  048%=      5-min Rain = 0
KLO1 150235Z 19006KT 30/18 A3009 RMK A01 T02980177  RH  048%=      5-min Rain = 0
KLO1 150236Z 19006KT 30/18 A3009 RMK A01 T02980177  RH  048%=      5-min Rain = 0
KLO1 150237Z 19005KT 30/18 A3009 RMK A01 T02980177  RH  048%=      5-min Rain = 0
KLO1 150238Z 19006KT 30/18 A3009 RMK A01 T02980177  RH  048%=      5-min Rain = 0
KLO1 150239Z 19006KT 30/18 A3009 RMK A01 T02980176  RH  048%=      5-min Rain = 0
KLO1 150240Z 19006KT 30/18 A3009 RMK A01 T02980176  RH  048%=      5-min Rain = 0
KLO1 150241Z 20006KT 30/18 A3009 RMK A01 T02980176  RH  048%=      5-min Rain = 0
KLO1 150242Z 20006KT 30/18 A3009 RMK A01 T02980176  RH  048%=      5-min Rain = 0
KLO1 150243Z 20006KT 30/18 A3009 RMK A01 T02980176  RH  048%=      5-min Rain = 0
KLO1 150244Z 20005KT 30/18 A3009 RMK A01 T02980176  RH  048%=      5-min Rain = 0
KLO1 150245Z 21005KT 30/18 A3009 RMK A01 T02980176  RH  048%=      5-min Rain = 0
KLO1 150246Z 21004KT 30/18 A301 RMK A01 T02980176  RH  048%=      5-min Rain = 0
KLO1 150247Z 20004KT 30/18 A301 RMK A01 T02980175  RH  048%=      5-min Rain = 0
KLO1 150248Z 19004KT 30/18 A301 RMK A01 T02990176  RH  048%=      5-min Rain = 0
KLO1 150249Z 18004KT 30/18 A301 RMK A01 T02990175  RH  048%=      5-min Rain = 0
KLO1 150250Z 17004KT 30/18 A301 RMK A01 T02990176  RH  048%=      5-min Rain = 0
KLO1 150251Z 17004KT 30/18 A301 RMK A01 T02990176  RH  048%=      5-min Rain = 0
KLO1 150252Z 17004KT 30/18 A301 RMK A01 T02980176  RH  048%=      5-min Rain = 0
KLO1 150253Z 17004KT 30/18 A301 RMK A01 T02980176  RH  048%=      5-min Rain = 0
KLO1 150254Z 18004KT 30/18 A301 RMK A01 T02970175  RH  048%=      5-min Rain = 0
KLO1 150255Z 18004KT 30/18 A301 RMK A01 T02970176  RH  048%=      5-min Rain = 0
KLO1 150256Z 19004KT 30/18 A301 RMK A01 T02970176  RH  048%=      5-min Rain = 0
KLO1 150257Z 19004KT 30/18 A301 RMK A01 T02970176  RH  048%=      5-min Rain = 0
KLO1 150258Z 20004KT 30/18 A301 RMK A01 T02960176  RH  048%=      5-min Rain = 0
KLO1 150259Z 20004KT 30/18 A301 RMK A01 T02950176  RH  049%=      5-min Rain = 0
KLO1 150300Z 20004KT 30/18 A301 RMK A01 T02950176  RH  049%=      5-min Rain = 0
KLO1 150301Z 20004KT 30/18 A301 RMK A01 T02950176  RH  049%=      5-min Rain = 0
KLO1 150302Z 20004KT 29/18 A301 RMK A01 T02940176  RH  049%=      5-min Rain = 0
KLO1 150303Z 20004KT 29/18 A301 RMK A01 T02930177  RH  049%=      5-min Rain = 0
KLO1 150304Z 19004KT 29/18 A301 RMK A01 T02930177  RH  050%=      5-min Rain = 0
KLO1 150305Z 20003KT 29/18 A3011 RMK A01 T02920177  RH  050%=      5-min Rain = 0
KLO1 150306Z 20003KT 29/18 A3011 RMK A01 T02910176  RH  050%=      5-min Rain = 0
KLO1 150307Z 20002KT 29/18 A3011 RMK A01 T02910177  RH  050%=      5-min Rain = 0
KLO1 150308Z 20002KT 29/18 A3011 RMK A01 T02910176  RH  050%=      5-min Rain = 0
KLO1 150309Z 19003KT 29/18 A3011 RMK A01 T02910176  RH  050%=      5-min Rain = 0
KLO1 150310Z 18003KT 29/18 A3011 RMK A01 T02910177  RH  050%=      5-min Rain = 0
KLO1 150311Z 18002KT 29/18 A3011 RMK A01 T02910177  RH  050%=      5-min Rain = 0
KLO1 150312Z 18003KT 29/18 A3011 RMK A01 T02900177  RH  050%=      5-min Rain = 0
KLO1 150313Z 19003KT 29/18 A3011 RMK A01 T02900176  RH  050%=      5-min Rain = 0
KLO1 150314Z 20004KT 29/18 A3011 RMK A01 T02900177  RH  050%=      5-min Rain = 0
KLO1 150315Z 21004KT 29/18 A3011 RMK A01 T02900177  RH  050%=      5-min Rain = 0
KLO1 150316Z 21004KT 29/18 A3011 RMK A01 T02900176  RH  050%=      5-min Rain = 0
KLO1 150317Z 21004KT 29/18 A3011 RMK A01 T02890176  RH  050%=      5-min Rain = 0
KLO1 150318Z 21003KT 29/18 A3011 RMK A01 T02890176  RH  051%=      5-min Rain = 0
KLO1 150319Z 21004KT 29/18 A3011 RMK A01 T02890176  RH  051%=      5-min Rain = 0
KLO1 150320Z 21004KT 29/18 A3011 RMK A01 T02890176  RH  051%=      5-min Rain = 0
KLO1 150321Z 22004KT 29/18 A3011 RMK A01 T02890176  RH  050%=      5-min Rain = 0
KLO1 150322Z 22004KT 29/18 A3011 RMK A01 T02900175  RH  050%=      5-min Rain = 0
KLO1 150323Z 22004KT 29/17 A3011 RMK A01 T02900174  RH  050%=      5-min Rain = 0
KLO1 150324Z 21004KT 29/17 A3011 RMK A01 T02900174  RH  049%=      5-min Rain = 0
KLO1 150325Z 21004KT 29/17 A3011 RMK A01 T02900173  RH  049%=      5-min Rain = 0
KLO1 150326Z 20003KT 29/17 A3011 RMK A01 T02900174  RH  049%=      5-min Rain = 0
KLO1 150327Z 21003KT 29/17 A3011 RMK A01 T02900174  RH  049%=      5-min Rain = 0
KLO1 150328Z 20003KT 29/18 A3011 RMK A01 T02910175  RH  050%=      5-min Rain = 0
KLO1 150329Z 19002KT 29/18 A3011 RMK A01 T02910175  RH  050%=      5-min Rain = 0
KLO1 150330Z 18002KT 29/18 A3011 RMK A01 T02900175  RH  050%=      5-min Rain = 0
KLO1 150331Z 18002KT 29/18 A3011 RMK A01 T02900175  RH  050%=      5-min Rain = 0
KLO1 150332Z 17002KT 29/18 A3011 RMK A01 T02890175  RH  050%=      5-min Rain = 0
KLO1 150333Z 16002KT 29/18 A3011 RMK A01 T02890175  RH  050%=      5-min Rain = 0
KLO1 150334Z 14002KT 29/18 A3011 RMK A01 T02890175  RH  050%=      5-min Rain = 0
KLO1 150335Z 13002KT 29/18 A3011 RMK A01 T02880176  RH  051%=      5-min Rain = 0
KLO1 150336Z 12002KT 29/18 A3011 RMK A01 T02880177  RH  051%=      5-min Rain = 0
KLO1 150337Z 13002KT 29/17 A3011 RMK A01 T02860174  RH  051%=      5-min Rain = 0
KLO1 150338Z 14002KT 29/17 A3011 RMK A01 T02860174  RH  051%=      5-min Rain = 0
KLO1 150339Z 13002KT 29/18 A3011 RMK A01 T02850175  RH  051%=      5-min Rain = 0
KLO1 150340Z 14003KT 28/18 A3011 RMK A01 T02840175  RH  051%=      5-min Rain = 0
KLO1 150341Z 13003KT 29/18 A3011 RMK A01 T02850175  RH  051%=      5-min Rain = 0
KLO1 150342Z 14002KT 28/17 A3011 RMK A01 T02840174  RH  051%=      5-min Rain = 0
KLO1 150343Z 14002KT 29/17 A3011 RMK A01 T02850173  RH  051%=      5-min Rain = 0
KLO1 150344Z 15002KT 29/17 A3011 RMK A01 T02850173  RH  051%=      5-min Rain = 0
KLO1 150345Z 15002KT 29/17 A3011 RMK A01 T02860173  RH  050%=      5-min Rain = 0
KLO1 150346Z 17002KT 29/17 A3011 RMK A01 T02870173  RH  050%=      5-min Rain = 0
KLO1 150347Z 18002KT 29/17 A3011 RMK A01 T02870173  RH  050%=      5-min Rain = 0
KLO1 150348Z 18002KT 29/17 A3011 RMK A01 T02880173  RH  050%=      5-min Rain = 0
KLO1 150349Z 20002KT 29/17 A3011 RMK A01 T02880173  RH  050%=      5-min Rain = 0
KLO1 150350Z 19002KT 29/17 A3011 RMK A01 T02890173  RH  050%=      5-min Rain = 0
KLO1 150351Z 19002KT 29/17 A3011 RMK A01 T02890173  RH  050%=      5-min Rain = 0
KLO1 150352Z 19002KT 29/17 A3011 RMK A01 T02880173  RH  050%=      5-min Rain = 0
KLO1 150353Z 19002KT 29/17 A3011 RMK A01 T02880173  RH  050%=      5-min Rain = 0
KLO1 150354Z 18002KT 29/17 A3012 RMK A01 T02880173  RH  050%=      5-min Rain = 0
KLO1 150355Z 18002KT 29/17 A3012 RMK A01 T02870173  RH  050%=      5-min Rain = 0
KLO1 150356Z 17001KT 29/17 A3012 RMK A01 T02870173  RH  050%=      5-min Rain = 0
KLO1 150357Z 13001KT 29/17 A3012 RMK A01 T02860172  RH  050%=      5-min Rain = 0
KLO1 150358Z 12002KT 29/17 A3012 RMK A01 T02860172  RH  050%=      5-min Rain = 0
KLO1 150359Z 12002KT 29/17 A3012 RMK A01 T02850172  RH  050%=      5-min Rain = 0
KLO1 150400Z 12002KT 29/17 A3012 RMK A01 T02850172  RH  051%=      5-min Rain = 0
KLO1 150401Z 13002KT 28/17 A3012 RMK A01 T02840173  RH  051%=      5-min Rain = 0
KLO1 150402Z 13002KT 28/17 A3011 RMK A01 T02840174  RH  051%=      5-min Rain = 0
KLO1 150403Z 14002KT 28/17 A3011 RMK A01 T02830174  RH  051%=      5-min Rain = 0
KLO1 150404Z 14002KT 28/17 A3011 RMK A01 T02830174  RH  052%=      5-min Rain = 0
KLO1 150405Z 16002KT 28/17 A3011 RMK A01 T02830174  RH  051%=      5-min Rain = 0
KLO1 150406Z 17003KT 28/17 A3011 RMK A01 T02840173  RH  051%=      5-min Rain = 0
KLO1 150407Z 18003KT 28/17 A3011 RMK A01 T02840173  RH  051%=      5-min Rain = 0
KLO1 150408Z 18003KT 28/17 A3011 RMK A01 T02840172  RH  051%=      5-min Rain = 0
KLO1 150409Z 19003KT 28/17 A3011 RMK A01 T02840172  RH  051%=      5-min Rain = 0
KLO1 150410Z 19003KT 28/17 A3011 RMK A01 T02840172  RH  051%=      5-min Rain = 0
KLO1 150411Z 20004KT 28/17 A3011 RMK A01 T02830172  RH  051%=      5-min Rain = 0
KLO1 150412Z 20004KT 28/17 A3011 RMK A01 T02830172  RH  051%=      5-min Rain = 0
KLO1 150413Z 20004KT 28/17 A3011 RMK A01 T02830173  RH  051%=      5-min Rain = 0
KLO1 150414Z 21004KT 28/17 A3011 RMK A01 T02830173  RH  051%=      5-min Rain = 0
KLO1 150415Z 20004KT 28/17 A3011 RMK A01 T02820173  RH  052%=      5-min Rain = 0
KLO1 150416Z 20004KT 28/17 A3011 RMK A01 T02820174  RH  052%=      5-min Rain = 0
KLO1 150417Z 21004KT 28/17 A3011 RMK A01 T02820174  RH  052%=      5-min Rain = 0
KLO1 150418Z 21004KT 28/17 A3011 RMK A01 T02820173  RH  052%=      5-min Rain = 0
KLO1 150419Z 21004KT 28/17 A3011 RMK A01 T02820173  RH  051%=      5-min Rain = 0
KLO1 150420Z 21005KT 28/17 A3011 RMK A01 T02830172  RH  051%=      5-min Rain = 0
KLO1 150421Z 21005KT 28/17 A3011 RMK A01 T02830172  RH  051%=      5-min Rain = 0
KLO1 150422Z 22004KT 28/17 A3011 RMK A01 T02830171  RH  051%=      5-min Rain = 0
KLO1 150423Z 22004KT 28/17 A3011 RMK A01 T02840171  RH  050%=      5-min Rain = 0
KLO1 150424Z 22004KT 28/17 A3011 RMK A01 T02840171  RH  050%=      5-min Rain = 0
KLO1 150425Z 22004KT 28/17 A3011 RMK A01 T02840171  RH  050%=      5-min Rain = 0
KLO1 150426Z 22004KT 28/17 A3011 RMK A01 T02840171  RH  050%=      5-min Rain = 0
KLO1 150427Z 22004KT 29/17 A3011 RMK A01 T02850171  RH  050%=      5-min Rain = 0
KLO1 150428Z 22003KT 29/17 A3011 RMK A01 T02850171  RH  050%=      5-min Rain = 0
KLO1 150429Z 21003KT 28/17 A3011 RMK A01 T02840171  RH  050%=      5-min Rain = 0
KLO1 150430Z 21003KT 28/17 A3011 RMK A01 T02840171  RH  050%=      5-min Rain = 0
KLO1 150431Z 21003KT 28/17 A3011 RMK A01 T02830171  RH  051%=      5-min Rain = 0
KLO1 150432Z 20002KT 28/17 A3011 RMK A01 T02830171  RH  051%=      5-min Rain = 0
KLO1 150433Z 12002KT 28/17 A3011 RMK A01 T02810171  RH  051%=      5-min Rain = 0
KLO1 150434Z 11003KT 28/17 A3011 RMK A01 T02780170  RH  052%=      5-min Rain = 0
KLO1 150435Z 11004KT 28/17 A3011 RMK A01 T02760170  RH  052%=      5-min Rain = 0
KLO1 150436Z 11003KT 28/17 A3011 RMK A01 T02750170  RH  053%=      5-min Rain = 0
KLO1 150437Z 11003KT 27/17 A3011 RMK A01 T02740170  RH  053%=      5-min Rain = 0
KLO1 150438Z 13003KT 27/17 A3011 RMK A01 T02740171  RH  053%=      5-min Rain = 0
KLO1 150439Z 13002KT 27/17 A3011 RMK A01 T02740171  RH  053%=      5-min Rain = 0
KLO1 150440Z 14002KT 28/17 A3011 RMK A01 T02750171  RH  053%=      5-min Rain = 0
KLO1 150441Z 14002KT 28/17 A3011 RMK A01 T02750171  RH  053%=      5-min Rain = 0
KLO1 150442Z 14002KT 28/17 A3011 RMK A01 T02760171  RH  053%=      5-min Rain = 0
KLO1 150443Z 16002KT 28/17 A3011 RMK A01 T02760171  RH  053%=      5-min Rain = 0
KLO1 150444Z 17003KT 28/17 A3011 RMK A01 T02770171  RH  053%=      5-min Rain = 0
KLO1 150445Z 18002KT 28/17 A3011 RMK A01 T02770171  RH  053%=      5-min Rain = 0
KLO1 150446Z 18002KT 28/17 A3011 RMK A01 T02770171  RH  052%=      5-min Rain = 0
KLO1 150447Z 19002KT 28/17 A3011 RMK A01 T02780171  RH  052%=      5-min Rain = 0
KLO1 150448Z 20002KT 28/17 A3011 RMK A01 T02780171  RH  052%=      5-min Rain = 0
KLO1 150449Z 20002KT 28/17 A3011 RMK A01 T02780171  RH  052%=      5-min Rain = 0
KLO1 150450Z 20002KT 28/17 A3011 RMK A01 T02780172  RH  052%=      5-min Rain = 0
KLO1 150451Z 20003KT 28/17 A3011 RMK A01 T02780172  RH  052%=      5-min Rain = 0
KLO1 150452Z 21003KT 28/17 A3011 RMK A01 T02780172  RH  053%=      5-min Rain = 0
KLO1 150453Z 20003KT 28/17 A3011 RMK A01 T02770172  RH  053%=      5-min Rain = 0
KLO1 150454Z 20003KT 28/17 A3011 RMK A01 T02770172  RH  053%=      5-min Rain = 0
KLO1 150455Z 20003KT 28/17 A3011 RMK A01 T02760172  RH  053%=      5-min Rain = 0
KLO1 150456Z 19003KT 28/17 A3011 RMK A01 T02750171  RH  053%=      5-min Rain = 0
KLO1 150457Z 19003KT 27/17 A3011 RMK A01 T02740171  RH  053%=      5-min Rain = 0
KLO1 150458Z 20002KT 27/17 A3011 RMK A01 T02740171  RH  053%=      5-min Rain = 0
KLO1 150459Z 20002KT 27/17 A3011 RMK A01 T02730170  RH  053%=      5-min Rain = 0

Page generated in 0.1463 seconds.